<?xml version="1.0" encoding="UTF-8" standalone="no" ?><gpx xmlns="http://www.topografix.com/GPX/1/1" xmlns:gpxx="http://www.garmin.com/xmlschemas/GpxExtensions/v3" xmlns:wptx1="http://www.garmin.com/xmlschemas/WaypointExtension/v1" xmlns:gpxtpx="http://www.garmin.com/xmlschemas/TrackPointExtension/v1" creator="GuideVTT.com" version="1.1" xmlns:xsi="http://www.w3.org/2001/XMLSchema-instance" xsi:schemaLocation="http://www.topografix.com/GPX/1/1 http://www.topografix.com/GPX/1/1/gpx.xsd http://www.garmin.com/xmlschemas/GpxExtensions/v3 http://www8.garmin.com/xmlschemas/GpxExtensionsv3.xsd http://www.garmin.com/xmlschemas/WaypointExtension/v1 http://www8.garmin.com/xmlschemas/WaypointExtensionv1.xsd http://www.garmin.com/xmlschemas/TrackPointExtension/v1 http://www.garmin.com/xmlschemas/TrackPointExtensionv1.xsd">
<metadata><link href="http://www.garmin.com"><text>Garmin International</text></link><time>2013-06-22T15:13:50Z</time></metadata>
<trk><name>tour_du_moleson_17.06.07.gpx</name><extensions><gpxx:TrackExtension><gpxx:DisplayColor>Cyan</gpxx:DisplayColor></gpxx:TrackExtension></extensions><trkseg>
<trkpt lat="46.54269464" lon="6.98033346"><ele></ele><time>2014-4-19T5:26:37Z</time></trkpt>
<trkpt lat="46.54269448" lon="6.98033354"><ele></ele><time>2014-4-19T5:26:40Z</time></trkpt>
<trkpt lat="46.54269372" lon="6.98033430"><ele></ele><time>2014-4-19T5:26:43Z</time></trkpt>
<trkpt lat="46.54269163" lon="6.98034226"><ele></ele><time>2014-4-19T5:26:46Z</time></trkpt>
<trkpt lat="46.54263002" lon="6.98034167"><ele></ele><time>2014-4-19T5:26:49Z</time></trkpt>
<trkpt lat="46.54232584" lon="6.97999248"><ele></ele><time>2014-4-19T5:26:52Z</time></trkpt>
<trkpt lat="46.54208427" lon="6.97976642"><ele></ele><time>2014-4-19T5:26:55Z</time></trkpt>
<trkpt lat="46.54210858" lon="6.97973164"><ele></ele><time>2014-4-19T5:26:58Z</time></trkpt>
<trkpt lat="46.54214462" lon="6.97969023"><ele></ele><time>2014-4-19T5:27:1Z</time></trkpt>
<trkpt lat="46.54214437" lon="6.97969065"><ele></ele><time>2014-4-19T5:27:4Z</time></trkpt>
<trkpt lat="46.54214404" lon="6.97969115"><ele></ele><time>2014-4-19T5:27:7Z</time></trkpt>
<trkpt lat="46.54213523" lon="6.97970440"><ele></ele><time>2014-4-19T5:27:10Z</time></trkpt>
<trkpt lat="46.54213473" lon="6.97970498"><ele></ele><time>2014-4-19T5:27:13Z</time></trkpt>
<trkpt lat="46.54213138" lon="6.97970808"><ele></ele><time>2014-4-19T5:27:16Z</time></trkpt>
<trkpt lat="46.54213096" lon="6.97970834"><ele></ele><time>2014-4-19T5:27:19Z</time></trkpt>
<trkpt lat="46.54212962" lon="6.97970926"><ele></ele><time>2014-4-19T5:27:22Z</time></trkpt>
<trkpt lat="46.54212920" lon="6.97970943"><ele></ele><time>2014-4-19T5:27:25Z</time></trkpt>
<trkpt lat="46.54212509" lon="6.97971127"><ele></ele><time>2014-4-19T5:27:28Z</time></trkpt>
<trkpt lat="46.54212484" lon="6.97971135"><ele></ele><time>2014-4-19T5:27:31Z</time></trkpt>
<trkpt lat="46.54212434" lon="6.97971144"><ele></ele><time>2014-4-19T5:27:34Z</time></trkpt>
<trkpt lat="46.54191898" lon="6.97960733"><ele></ele><time>2014-4-19T5:27:37Z</time></trkpt>
<trkpt lat="46.54174933" lon="6.97952754"><ele></ele><time>2014-4-19T5:27:40Z</time></trkpt>
<trkpt lat="46.54174732" lon="6.97950969"><ele></ele><time>2014-4-19T5:27:43Z</time></trkpt>
<trkpt lat="46.54174657" lon="6.97950499"><ele></ele><time>2014-4-19T5:27:46Z</time></trkpt>
<trkpt lat="46.54174573" lon="6.97950088"><ele></ele><time>2014-4-19T5:27:49Z</time></trkpt>
<trkpt lat="46.54174539" lon="6.97949904"><ele></ele><time>2014-4-19T5:27:52Z</time></trkpt>
<trkpt lat="46.54174372" lon="6.97949267"><ele></ele><time>2014-4-19T5:27:55Z</time></trkpt>
<trkpt lat="46.54174346" lon="6.97949183"><ele></ele><time>2014-4-19T5:27:58Z</time></trkpt>
<trkpt lat="46.54174338" lon="6.97949116"><ele></ele><time>2014-4-19T5:28:1Z</time></trkpt>
<trkpt lat="46.54174623" lon="6.97948714"><ele></ele><time>2014-4-19T5:28:4Z</time></trkpt>
<trkpt lat="46.54155395" lon="6.97940206"><ele></ele><time>2014-4-19T5:28:7Z</time></trkpt>
<trkpt lat="46.54144046" lon="6.97931254"><ele></ele><time>2014-4-19T5:28:10Z</time></trkpt>
<trkpt lat="46.54114952" lon="6.97916603"><ele></ele><time>2014-4-19T5:28:13Z</time></trkpt>
<trkpt lat="46.54114198" lon="6.97917944"><ele></ele><time>2014-4-19T5:28:16Z</time></trkpt>
<trkpt lat="46.54114324" lon="6.97917826"><ele></ele><time>2014-4-19T5:28:19Z</time></trkpt>
<trkpt lat="46.54114944" lon="6.97917189"><ele></ele><time>2014-4-19T5:28:22Z</time></trkpt>
<trkpt lat="46.54115095" lon="6.97917013"><ele></ele><time>2014-4-19T5:28:25Z</time></trkpt>
<trkpt lat="46.54115514" lon="6.97916603"><ele></ele><time>2014-4-19T5:28:28Z</time></trkpt>
<trkpt lat="46.54116075" lon="6.97916100"><ele></ele><time>2014-4-19T5:28:31Z</time></trkpt>
<trkpt lat="46.54116226" lon="6.97915982"><ele></ele><time>2014-4-19T5:28:34Z</time></trkpt>
<trkpt lat="46.54116352" lon="6.97915873"><ele></ele><time>2014-4-19T5:28:37Z</time></trkpt>
<trkpt lat="46.54097744" lon="6.97914843"><ele></ele><time>2014-4-19T5:28:40Z</time></trkpt>
<trkpt lat="46.54027982" lon="6.97894164"><ele></ele><time>2014-4-19T5:28:43Z</time></trkpt>
<trkpt lat="46.54004772" lon="6.97883846"><ele></ele><time>2014-4-19T5:28:46Z</time></trkpt>
<trkpt lat="46.53984446" lon="6.97872866"><ele></ele><time>2014-4-19T5:28:49Z</time></trkpt>
<trkpt lat="46.53983247" lon="6.97870217"><ele></ele><time>2014-4-19T5:28:52Z</time></trkpt>
<trkpt lat="46.53982887" lon="6.97869387"><ele></ele><time>2014-4-19T5:28:55Z</time></trkpt>
<trkpt lat="46.53982577" lon="6.97868616"><ele></ele><time>2014-4-19T5:28:58Z</time></trkpt>
<trkpt lat="46.53964556" lon="6.97862045"><ele></ele><time>2014-4-19T5:29:1Z</time></trkpt>
<trkpt lat="46.53951379" lon="6.97856756"><ele></ele><time>2014-4-19T5:29:4Z</time></trkpt>
<trkpt lat="46.53927189" lon="6.97845918"><ele></ele><time>2014-4-19T5:29:7Z</time></trkpt>
<trkpt lat="46.53908724" lon="6.97837654"><ele></ele><time>2014-4-19T5:29:10Z</time></trkpt>
<trkpt lat="46.53830462" lon="6.97799516"><ele></ele><time>2014-4-19T5:29:13Z</time></trkpt>
<trkpt lat="46.53821192" lon="6.97785384"><ele></ele><time>2014-4-19T5:29:16Z</time></trkpt>
<trkpt lat="46.53798904" lon="6.97786474"><ele></ele><time>2014-4-19T5:29:19Z</time></trkpt>
<trkpt lat="46.53786650" lon="6.97786273"><ele></ele><time>2014-4-19T5:29:22Z</time></trkpt>
<trkpt lat="46.53770096" lon="6.97786516"><ele></ele><time>2014-4-19T5:29:25Z</time></trkpt>
<trkpt lat="46.53743315" lon="6.97791008"><ele></ele><time>2014-4-19T5:29:28Z</time></trkpt>
<trkpt lat="46.53724674" lon="6.97812122"><ele></ele><time>2014-4-19T5:29:31Z</time></trkpt>
<trkpt lat="46.53709042" lon="6.97839565"><ele></ele><time>2014-4-19T5:29:34Z</time></trkpt>
<trkpt lat="46.53700660" lon="6.97854753"><ele></ele><time>2014-4-19T5:29:37Z</time></trkpt>
<trkpt lat="46.53686075" lon="6.97877434"><ele></ele><time>2014-4-19T5:29:40Z</time></trkpt>
<trkpt lat="46.53673477" lon="6.97898498"><ele></ele><time>2014-4-19T5:29:43Z</time></trkpt>
<trkpt lat="46.53681105" lon="6.97938186"><ele></ele><time>2014-4-19T5:29:46Z</time></trkpt>
<trkpt lat="46.53702378" lon="6.97937910"><ele></ele><time>2014-4-19T5:29:49Z</time></trkpt>
<trkpt lat="46.53714289" lon="6.97919520"><ele></ele><time>2014-4-19T5:29:52Z</time></trkpt>
<trkpt lat="46.53721992" lon="6.97913183"><ele></ele><time>2014-4-19T5:29:55Z</time></trkpt>
<trkpt lat="46.53728949" lon="6.97907902"><ele></ele><time>2014-4-19T5:29:58Z</time></trkpt>
<trkpt lat="46.53754706" lon="6.97898632"><ele></ele><time>2014-4-19T5:30:1Z</time></trkpt>
<trkpt lat="46.53776692" lon="6.97903996"><ele></ele><time>2014-4-19T5:30:4Z</time></trkpt>
<trkpt lat="46.53789835" lon="6.97916938"><ele></ele><time>2014-4-19T5:30:7Z</time></trkpt>
<trkpt lat="46.53803095" lon="6.97929360"><ele></ele><time>2014-4-19T5:30:10Z</time></trkpt>
<trkpt lat="46.53816163" lon="6.97936133"><ele></ele><time>2014-4-19T5:30:13Z</time></trkpt>
<trkpt lat="46.53824343" lon="6.97938756"><ele></ele><time>2014-4-19T5:30:16Z</time></trkpt>
<trkpt lat="46.53850059" lon="6.97954103"><ele></ele><time>2014-4-19T5:30:19Z</time></trkpt>
<trkpt lat="46.53858248" lon="6.97959443"><ele></ele><time>2014-4-19T5:30:22Z</time></trkpt>
<trkpt lat="46.53869966" lon="6.97966358"><ele></ele><time>2014-4-19T5:30:25Z</time></trkpt>
<trkpt lat="46.53891474" lon="6.97977489"><ele></ele><time>2014-4-19T5:30:28Z</time></trkpt>
<trkpt lat="46.53895338" lon="6.97979668"><ele></ele><time>2014-4-19T5:30:31Z</time></trkpt>
<trkpt lat="46.53910249" lon="6.97986156"><ele></ele><time>2014-4-19T5:30:34Z</time></trkpt>
<trkpt lat="46.53931313" lon="6.97997035"><ele></ele><time>2014-4-19T5:30:37Z</time></trkpt>
<trkpt lat="46.53951564" lon="6.98006608"><ele></ele><time>2014-4-19T5:30:40Z</time></trkpt>
<trkpt lat="46.53971437" lon="6.98013866"><ele></ele><time>2014-4-19T5:30:43Z</time></trkpt>
<trkpt lat="46.53991076" lon="6.98020094"><ele></ele><time>2014-4-19T5:30:46Z</time></trkpt>
<trkpt lat="46.54007790" lon="6.98024486"><ele></ele><time>2014-4-19T5:30:49Z</time></trkpt>
<trkpt lat="46.54018418" lon="6.98025936"><ele></ele><time>2014-4-19T5:30:52Z</time></trkpt>
<trkpt lat="46.54029105" lon="6.98030043"><ele></ele><time>2014-4-19T5:30:55Z</time></trkpt>
<trkpt lat="46.54029088" lon="6.98018359"><ele></ele><time>2014-4-19T5:30:58Z</time></trkpt>
<trkpt lat="46.54035584" lon="6.98032860"><ele></ele><time>2014-4-19T5:31:1Z</time></trkpt>
<trkpt lat="46.54041778" lon="6.98039238"><ele></ele><time>2014-4-19T5:31:4Z</time></trkpt>
<trkpt lat="46.54052909" lon="6.98050034"><ele></ele><time>2014-4-19T5:31:7Z</time></trkpt>
<trkpt lat="46.54063890" lon="6.98065038"><ele></ele><time>2014-4-19T5:31:10Z</time></trkpt>
<trkpt lat="46.54074803" lon="6.98079706"><ele></ele><time>2014-4-19T5:31:13Z</time></trkpt>
<trkpt lat="46.54078097" lon="6.98084325"><ele></ele><time>2014-4-19T5:31:16Z</time></trkpt>
<trkpt lat="46.54090997" lon="6.98102958"><ele></ele><time>2014-4-19T5:31:19Z</time></trkpt>
<trkpt lat="46.54093386" lon="6.98109378"><ele></ele><time>2014-4-19T5:31:22Z</time></trkpt>
<trkpt lat="46.54104936" lon="6.98130316"><ele></ele><time>2014-4-19T5:31:25Z</time></trkpt>
<trkpt lat="46.54112622" lon="6.98146393"><ele></ele><time>2014-4-19T5:31:28Z</time></trkpt>
<trkpt lat="46.54127056" lon="6.98166233"><ele></ele><time>2014-4-19T5:31:31Z</time></trkpt>
<trkpt lat="46.54138925" lon="6.98190230"><ele></ele><time>2014-4-19T5:31:34Z</time></trkpt>
<trkpt lat="46.54153534" lon="6.98217614"><ele></ele><time>2014-4-19T5:31:37Z</time></trkpt>
<trkpt lat="46.54167306" lon="6.98239189"><ele></ele><time>2014-4-19T5:31:40Z</time></trkpt>
<trkpt lat="46.54174657" lon="6.98253404"><ele></ele><time>2014-4-19T5:31:43Z</time></trkpt>
<trkpt lat="46.54181815" lon="6.98272507"><ele></ele><time>2014-4-19T5:31:46Z</time></trkpt>
<trkpt lat="46.54193407" lon="6.98291089"><ele></ele><time>2014-4-19T5:31:49Z</time></trkpt>
<trkpt lat="46.54200993" lon="6.98304207"><ele></ele><time>2014-4-19T5:31:52Z</time></trkpt>
<trkpt lat="46.54204773" lon="6.98310309"><ele></ele><time>2014-4-19T5:31:55Z</time></trkpt>
<trkpt lat="46.54212434" lon="6.98323988"><ele></ele><time>2014-4-19T5:31:58Z</time></trkpt>
<trkpt lat="46.54218276" lon="6.98342085"><ele></ele><time>2014-4-19T5:32:1Z</time></trkpt>
<trkpt lat="46.54221964" lon="6.98349830"><ele></ele><time>2014-4-19T5:32:4Z</time></trkpt>
<trkpt lat="46.54227655" lon="6.98358916"><ele></ele><time>2014-4-19T5:32:7Z</time></trkpt>
<trkpt lat="46.54230924" lon="6.98362486"><ele></ele><time>2014-4-19T5:32:10Z</time></trkpt>
<trkpt lat="46.54230899" lon="6.98362553"><ele></ele><time>2014-4-19T5:32:13Z</time></trkpt>
<trkpt lat="46.54231536" lon="6.98362478"><ele></ele><time>2014-4-19T5:32:16Z</time></trkpt>
<trkpt lat="46.54231595" lon="6.98362386"><ele></ele><time>2014-4-19T5:32:19Z</time></trkpt>
<trkpt lat="46.54231628" lon="6.98362277"><ele></ele><time>2014-4-19T5:32:22Z</time></trkpt>
<trkpt lat="46.54235132" lon="6.98371455"><ele></ele><time>2014-4-19T5:32:25Z</time></trkpt>
<trkpt lat="46.54236088" lon="6.98374229"><ele></ele><time>2014-4-19T5:32:28Z</time></trkpt>
<trkpt lat="46.54236557" lon="6.98377264"><ele></ele><time>2014-4-19T5:32:31Z</time></trkpt>
<trkpt lat="46.54237244" lon="6.98379862"><ele></ele><time>2014-4-19T5:32:34Z</time></trkpt>
<trkpt lat="46.54245526" lon="6.98398512"><ele></ele><time>2014-4-19T5:32:37Z</time></trkpt>
<trkpt lat="46.54255198" lon="6.98411068"><ele></ele><time>2014-4-19T5:32:40Z</time></trkpt>
<trkpt lat="46.54257319" lon="6.98422157"><ele></ele><time>2014-4-19T5:32:43Z</time></trkpt>
<trkpt lat="46.54259926" lon="6.98440614"><ele></ele><time>2014-4-19T5:32:46Z</time></trkpt>
<trkpt lat="46.54269867" lon="6.98452986"><ele></ele><time>2014-4-19T5:32:49Z</time></trkpt>
<trkpt lat="46.54271199" lon="6.98453346"><ele></ele><time>2014-4-19T5:32:52Z</time></trkpt>
<trkpt lat="46.54288525" lon="6.98451159"><ele></ele><time>2014-4-19T5:32:55Z</time></trkpt>
<trkpt lat="46.54298918" lon="6.98452919"><ele></ele><time>2014-4-19T5:32:58Z</time></trkpt>
<trkpt lat="46.54320996" lon="6.98469783"><ele></ele><time>2014-4-19T5:33:1Z</time></trkpt>
<trkpt lat="46.54340300" lon="6.98490629"><ele></ele><time>2014-4-19T5:33:4Z</time></trkpt>
<trkpt lat="46.54358958" lon="6.98514668"><ele></ele><time>2014-4-19T5:33:7Z</time></trkpt>
<trkpt lat="46.54368362" lon="6.98533989"><ele></ele><time>2014-4-19T5:33:10Z</time></trkpt>
<trkpt lat="46.54382972" lon="6.98566535"><ele></ele><time>2014-4-19T5:33:13Z</time></trkpt>
<trkpt lat="46.54401287" lon="6.98574867"><ele></ele><time>2014-4-19T5:33:16Z</time></trkpt>
<trkpt lat="46.54418645" lon="6.98580164"><ele></ele><time>2014-4-19T5:33:19Z</time></trkpt>
<trkpt lat="46.54437178" lon="6.98594447"><ele></ele><time>2014-4-19T5:33:22Z</time></trkpt>
<trkpt lat="46.54455224" lon="6.98610348"><ele></ele><time>2014-4-19T5:33:25Z</time></trkpt>
<trkpt lat="46.54456247" lon="6.98611387"><ele></ele><time>2014-4-19T5:33:28Z</time></trkpt>
<trkpt lat="46.54475785" lon="6.98625670"><ele></ele><time>2014-4-19T5:33:31Z</time></trkpt>
<trkpt lat="46.54492775" lon="6.98640405"><ele></ele><time>2014-4-19T5:33:34Z</time></trkpt>
<trkpt lat="46.54502573" lon="6.98648469"><ele></ele><time>2014-4-19T5:33:37Z</time></trkpt>
<trkpt lat="46.54521097" lon="6.98664268"><ele></ele><time>2014-4-19T5:33:40Z</time></trkpt>
<trkpt lat="46.54541038" lon="6.98683480"><ele></ele><time>2014-4-19T5:33:43Z</time></trkpt>
<trkpt lat="46.54554013" lon="6.98696145"><ele></ele><time>2014-4-19T5:33:46Z</time></trkpt>
<trkpt lat="46.54573895" lon="6.98720042"><ele></ele><time>2014-4-19T5:33:49Z</time></trkpt>
<trkpt lat="46.54590759" lon="6.98738507"><ele></ele><time>2014-4-19T5:33:52Z</time></trkpt>
<trkpt lat="46.54608068" lon="6.98760769"><ele></ele><time>2014-4-19T5:33:55Z</time></trkpt>
<trkpt lat="46.54622896" lon="6.98773745"><ele></ele><time>2014-4-19T5:33:58Z</time></trkpt>
<trkpt lat="46.54643876" lon="6.98786267"><ele></ele><time>2014-4-19T5:34:1Z</time></trkpt>
<trkpt lat="46.54658829" lon="6.98798086"><ele></ele><time>2014-4-19T5:34:4Z</time></trkpt>
<trkpt lat="46.54664529" lon="6.98804406"><ele></ele><time>2014-4-19T5:34:7Z</time></trkpt>
<trkpt lat="46.54667948" lon="6.98808219"><ele></ele><time>2014-4-19T5:34:10Z</time></trkpt>
<trkpt lat="46.54682374" lon="6.98819594"><ele></ele><time>2014-4-19T5:34:13Z</time></trkpt>
<trkpt lat="46.54686204" lon="6.98822443"><ele></ele><time>2014-4-19T5:34:16Z</time></trkpt>
<trkpt lat="46.54701887" lon="6.98835284"><ele></ele><time>2014-4-19T5:34:19Z</time></trkpt>
<trkpt lat="46.54705164" lon="6.98840724"><ele></ele><time>2014-4-19T5:34:22Z</time></trkpt>
<trkpt lat="46.54717578" lon="6.98853456"><ele></ele><time>2014-4-19T5:34:25Z</time></trkpt>
<trkpt lat="46.54718516" lon="6.98857144"><ele></ele><time>2014-4-19T5:34:28Z</time></trkpt>
<trkpt lat="46.54718835" lon="6.98860564"><ele></ele><time>2014-4-19T5:34:31Z</time></trkpt>
<trkpt lat="46.54716547" lon="6.98873774"><ele></ele><time>2014-4-19T5:34:34Z</time></trkpt>
<trkpt lat="46.54700453" lon="6.98864286"><ele></ele><time>2014-4-19T5:34:37Z</time></trkpt>
<trkpt lat="46.54681452" lon="6.98854974"><ele></ele><time>2014-4-19T5:34:40Z</time></trkpt>
<trkpt lat="46.54669155" lon="6.98852065"><ele></ele><time>2014-4-19T5:34:43Z</time></trkpt>
<trkpt lat="46.54644974" lon="6.98842149"><ele></ele><time>2014-4-19T5:34:46Z</time></trkpt>
<trkpt lat="46.54640447" lon="6.98839618"><ele></ele><time>2014-4-19T5:34:49Z</time></trkpt>
<trkpt lat="46.54627866" lon="6.98832585"><ele></ele><time>2014-4-19T5:34:52Z</time></trkpt>
<trkpt lat="46.54625678" lon="6.98833013"><ele></ele><time>2014-4-19T5:34:55Z</time></trkpt>
<trkpt lat="46.54640439" lon="6.98840087"><ele></ele><time>2014-4-19T5:34:58Z</time></trkpt>
<trkpt lat="46.54668896" lon="6.98852560"><ele></ele><time>2014-4-19T5:35:1Z</time></trkpt>
<trkpt lat="46.54686606" lon="6.98859684"><ele></ele><time>2014-4-19T5:35:4Z</time></trkpt>
<trkpt lat="46.54692926" lon="6.98862677"><ele></ele><time>2014-4-19T5:35:7Z</time></trkpt>
<trkpt lat="46.54708508" lon="6.98877253"><ele></ele><time>2014-4-19T5:35:10Z</time></trkpt>
<trkpt lat="46.54707704" lon="6.98905508"><ele></ele><time>2014-4-19T5:35:13Z</time></trkpt>
<trkpt lat="46.54685726" lon="6.98931928"><ele></ele><time>2014-4-19T5:35:16Z</time></trkpt>
<trkpt lat="46.54661628" lon="6.98961323"><ele></ele><time>2014-4-19T5:35:19Z</time></trkpt>
<trkpt lat="46.54645686" lon="6.98985144"><ele></ele><time>2014-4-19T5:35:22Z</time></trkpt>
<trkpt lat="46.54629157" lon="6.99015018"><ele></ele><time>2014-4-19T5:35:25Z</time></trkpt>
<trkpt lat="46.54607012" lon="6.99050322"><ele></ele><time>2014-4-19T5:35:28Z</time></trkpt>
<trkpt lat="46.54603575" lon="6.99058637"><ele></ele><time>2014-4-19T5:35:31Z</time></trkpt>
<trkpt lat="46.54604305" lon="6.99117042"><ele></ele><time>2014-4-19T5:35:34Z</time></trkpt>
<trkpt lat="46.54586845" lon="6.99133345"><ele></ele><time>2014-4-19T5:35:37Z</time></trkpt>
<trkpt lat="46.54566024" lon="6.99143462"><ele></ele><time>2014-4-19T5:35:40Z</time></trkpt>
<trkpt lat="46.54549219" lon="6.99147795"><ele></ele><time>2014-4-19T5:35:43Z</time></trkpt>
<trkpt lat="46.54533008" lon="6.99156093"><ele></ele><time>2014-4-19T5:35:46Z</time></trkpt>
<trkpt lat="46.54526663" lon="6.99158759"><ele></ele><time>2014-4-19T5:35:49Z</time></trkpt>
<trkpt lat="46.54519865" lon="6.99162070"><ele></ele><time>2014-4-19T5:35:52Z</time></trkpt>
<trkpt lat="46.54503554" lon="6.99157946"><ele></ele><time>2014-4-19T5:35:55Z</time></trkpt>
<trkpt lat="46.54492029" lon="6.99153042"><ele></ele><time>2014-4-19T5:35:58Z</time></trkpt>
<trkpt lat="46.54490068" lon="6.99153235"><ele></ele><time>2014-4-19T5:36:1Z</time></trkpt>
<trkpt lat="46.54486497" lon="6.99151953"><ele></ele><time>2014-4-19T5:36:4Z</time></trkpt>
<trkpt lat="46.54477612" lon="6.99149899"><ele></ele><time>2014-4-19T5:36:7Z</time></trkpt>
<trkpt lat="46.54462072" lon="6.99152246"><ele></ele><time>2014-4-19T5:36:10Z</time></trkpt>
<trkpt lat="46.54440539" lon="6.99154182"><ele></ele><time>2014-4-19T5:36:13Z</time></trkpt>
<trkpt lat="46.54439039" lon="6.99153679"><ele></ele><time>2014-4-19T5:36:16Z</time></trkpt>
<trkpt lat="46.54421370" lon="6.99141953"><ele></ele><time>2014-4-19T5:36:19Z</time></trkpt>
<trkpt lat="46.54401555" lon="6.99139212"><ele></ele><time>2014-4-19T5:36:22Z</time></trkpt>
<trkpt lat="46.54381572" lon="6.99148013"><ele></ele><time>2014-4-19T5:36:25Z</time></trkpt>
<trkpt lat="46.54362814" lon="6.99150167"><ele></ele><time>2014-4-19T5:36:28Z</time></trkpt>
<trkpt lat="46.54353434" lon="6.99156085"><ele></ele><time>2014-4-19T5:36:31Z</time></trkpt>
<trkpt lat="46.54338942" lon="6.99166328"><ele></ele><time>2014-4-19T5:36:34Z</time></trkpt>
<trkpt lat="46.54326067" lon="6.99176864"><ele></ele><time>2014-4-19T5:36:37Z</time></trkpt>
<trkpt lat="46.54324726" lon="6.99177425"><ele></ele><time>2014-4-19T5:36:40Z</time></trkpt>
<trkpt lat="46.54321264" lon="6.99181784"><ele></ele><time>2014-4-19T5:36:43Z</time></trkpt>
<trkpt lat="46.54320317" lon="6.99180108"><ele></ele><time>2014-4-19T5:36:46Z</time></trkpt>
<trkpt lat="46.54323695" lon="6.99181122"><ele></ele><time>2014-4-19T5:36:49Z</time></trkpt>
<trkpt lat="46.54322656" lon="6.99182295"><ele></ele><time>2014-4-19T5:36:52Z</time></trkpt>
<trkpt lat="46.54316654" lon="6.99189562"><ele></ele><time>2014-4-19T5:36:55Z</time></trkpt>
<trkpt lat="46.54312924" lon="6.99204599"><ele></ele><time>2014-4-19T5:36:58Z</time></trkpt>
<trkpt lat="46.54313453" lon="6.99215094"><ele></ele><time>2014-4-19T5:37:1Z</time></trkpt>
<trkpt lat="46.54315112" lon="6.99227499"><ele></ele><time>2014-4-19T5:37:4Z</time></trkpt>
<trkpt lat="46.54315146" lon="6.99241019"><ele></ele><time>2014-4-19T5:37:7Z</time></trkpt>
<trkpt lat="46.54312707" lon="6.99252670"><ele></ele><time>2014-4-19T5:37:10Z</time></trkpt>
<trkpt lat="46.54296228" lon="6.99275703"><ele></ele><time>2014-4-19T5:37:13Z</time></trkpt>
<trkpt lat="46.54282364" lon="6.99301519"><ele></ele><time>2014-4-19T5:37:16Z</time></trkpt>
<trkpt lat="46.54276773" lon="6.99316833"><ele></ele><time>2014-4-19T5:37:19Z</time></trkpt>
<trkpt lat="46.54252508" lon="6.99345357"><ele></ele><time>2014-4-19T5:37:22Z</time></trkpt>
<trkpt lat="46.54225275" lon="6.99360075"><ele></ele><time>2014-4-19T5:37:25Z</time></trkpt>
<trkpt lat="46.54219299" lon="6.99380318"><ele></ele><time>2014-4-19T5:37:28Z</time></trkpt>
<trkpt lat="46.54215535" lon="6.99382598"><ele></ele><time>2014-4-19T5:37:31Z</time></trkpt>
<trkpt lat="46.54211235" lon="6.99383813"><ele></ele><time>2014-4-19T5:37:34Z</time></trkpt>
<trkpt lat="46.54211227" lon="6.99383738"><ele></ele><time>2014-4-19T5:37:37Z</time></trkpt>
<trkpt lat="46.54211202" lon="6.99383209"><ele></ele><time>2014-4-19T5:37:40Z</time></trkpt>
<trkpt lat="46.54213347" lon="6.99386579"><ele></ele><time>2014-4-19T5:37:43Z</time></trkpt>
<trkpt lat="46.54219374" lon="6.99395665"><ele></ele><time>2014-4-19T5:37:46Z</time></trkpt>
<trkpt lat="46.54221277" lon="6.99397333"><ele></ele><time>2014-4-19T5:37:49Z</time></trkpt>
<trkpt lat="46.54226666" lon="6.99400174"><ele></ele><time>2014-4-19T5:37:52Z</time></trkpt>
<trkpt lat="46.54230396" lon="6.99402178"><ele></ele><time>2014-4-19T5:37:55Z</time></trkpt>
<trkpt lat="46.54245475" lon="6.99407316"><ele></ele><time>2014-4-19T5:37:58Z</time></trkpt>
<trkpt lat="46.54249557" lon="6.99414097"><ele></ele><time>2014-4-19T5:38:1Z</time></trkpt>
<trkpt lat="46.54264645" lon="6.99450843"><ele></ele><time>2014-4-19T5:38:4Z</time></trkpt>
<trkpt lat="46.54283848" lon="6.99502274"><ele></ele><time>2014-4-19T5:38:7Z</time></trkpt>
<trkpt lat="46.54298298" lon="6.99515442"><ele></ele><time>2014-4-19T5:38:10Z</time></trkpt>
<trkpt lat="46.54315464" lon="6.99526079"><ele></ele><time>2014-4-19T5:38:13Z</time></trkpt>
<trkpt lat="46.54318205" lon="6.99529105"><ele></ele><time>2014-4-19T5:38:16Z</time></trkpt>
<trkpt lat="46.54323243" lon="6.99538945"><ele></ele><time>2014-4-19T5:38:19Z</time></trkpt>
<trkpt lat="46.54371346" lon="6.99569606"><ele></ele><time>2014-4-19T5:38:22Z</time></trkpt>
<trkpt lat="46.54402728" lon="6.99586915"><ele></ele><time>2014-4-19T5:38:25Z</time></trkpt>
<trkpt lat="46.54440028" lon="6.99607593"><ele></ele><time>2014-4-19T5:38:28Z</time></trkpt>
<trkpt lat="46.54432434" lon="6.99623443"><ele></ele><time>2014-4-19T5:38:31Z</time></trkpt>
<trkpt lat="46.54425862" lon="6.99660315"><ele></ele><time>2014-4-19T5:38:34Z</time></trkpt>
<trkpt lat="46.54436214" lon="6.99688914"><ele></ele><time>2014-4-19T5:38:37Z</time></trkpt>
<trkpt lat="46.54450740" lon="6.99716482"><ele></ele><time>2014-4-19T5:38:40Z</time></trkpt>
<trkpt lat="46.54468669" lon="6.99749918"><ele></ele><time>2014-4-19T5:38:43Z</time></trkpt>
<trkpt lat="46.54513202" lon="6.99824500"><ele></ele><time>2014-4-19T5:38:46Z</time></trkpt>
<trkpt lat="46.54521718" lon="6.99840568"><ele></ele><time>2014-4-19T5:38:49Z</time></trkpt>
<trkpt lat="46.54538708" lon="6.99868002"><ele></ele><time>2014-4-19T5:38:52Z</time></trkpt>
<trkpt lat="46.54555019" lon="6.99889242"><ele></ele><time>2014-4-19T5:38:55Z</time></trkpt>
<trkpt lat="46.54569553" lon="6.99900272"><ele></ele><time>2014-4-19T5:38:58Z</time></trkpt>
<trkpt lat="46.54568505" lon="6.99896056"><ele></ele><time>2014-4-19T5:39:1Z</time></trkpt>
<trkpt lat="46.54576317" lon="6.99899208"><ele></ele><time>2014-4-19T5:39:4Z</time></trkpt>
<trkpt lat="46.54585370" lon="6.99900616"><ele></ele><time>2014-4-19T5:39:7Z</time></trkpt>
<trkpt lat="46.54609946" lon="6.99918159"><ele></ele><time>2014-4-19T5:39:10Z</time></trkpt>
<trkpt lat="46.54632267" lon="6.99930472"><ele></ele><time>2014-4-19T5:39:13Z</time></trkpt>
<trkpt lat="46.54656406" lon="6.99943355"><ele></ele><time>2014-4-19T5:39:16Z</time></trkpt>
<trkpt lat="46.54676473" lon="6.99953414"><ele></ele><time>2014-4-19T5:39:19Z</time></trkpt>
<trkpt lat="46.54697134" lon="6.99963824"><ele></ele><time>2014-4-19T5:39:22Z</time></trkpt>
<trkpt lat="46.54735414" lon="6.99997469"><ele></ele><time>2014-4-19T5:39:25Z</time></trkpt>
<trkpt lat="46.54745716" lon="7.00007326"><ele></ele><time>2014-4-19T5:39:28Z</time></trkpt>
<trkpt lat="46.54779118" lon="7.00036562"><ele></ele><time>2014-4-19T5:39:31Z</time></trkpt>
<trkpt lat="46.54805135" lon="7.00055187"><ele></ele><time>2014-4-19T5:39:34Z</time></trkpt>
<trkpt lat="46.54827129" lon="7.00082302"><ele></ele><time>2014-4-19T5:39:37Z</time></trkpt>
<trkpt lat="46.54880974" lon="7.00126416"><ele></ele><time>2014-4-19T5:39:40Z</time></trkpt>
<trkpt lat="46.54904360" lon="7.00144353"><ele></ele><time>2014-4-19T5:39:43Z</time></trkpt>
<trkpt lat="46.54921467" lon="7.00151864"><ele></ele><time>2014-4-19T5:39:46Z</time></trkpt>
<trkpt lat="46.54945130" lon="7.00158753"><ele></ele><time>2014-4-19T5:39:49Z</time></trkpt>
<trkpt lat="46.54967434" lon="7.00169415"><ele></ele><time>2014-4-19T5:39:52Z</time></trkpt>
<trkpt lat="46.54988799" lon="7.00180010"><ele></ele><time>2014-4-19T5:39:55Z</time></trkpt>
<trkpt lat="46.55016853" lon="7.00190655"><ele></ele><time>2014-4-19T5:39:58Z</time></trkpt>
<trkpt lat="46.55035419" lon="7.00201417"><ele></ele><time>2014-4-19T5:40:1Z</time></trkpt>
<trkpt lat="46.55064044" lon="7.00201568"><ele></ele><time>2014-4-19T5:40:4Z</time></trkpt>
<trkpt lat="46.55082517" lon="7.00193220"><ele></ele><time>2014-4-19T5:40:7Z</time></trkpt>
<trkpt lat="46.55109532" lon="7.00205793"><ele></ele><time>2014-4-19T5:40:10Z</time></trkpt>
<trkpt lat="46.55127897" lon="7.00212423"><ele></ele><time>2014-4-19T5:40:13Z</time></trkpt>
<trkpt lat="46.55150075" lon="7.00217033"><ele></ele><time>2014-4-19T5:40:16Z</time></trkpt>
<trkpt lat="46.55177652" lon="7.00218164"><ele></ele><time>2014-4-19T5:40:19Z</time></trkpt>
<trkpt lat="46.55197199" lon="7.00201736"><ele></ele><time>2014-4-19T5:40:22Z</time></trkpt>
<trkpt lat="46.55205564" lon="7.00191803"><ele></ele><time>2014-4-19T5:40:25Z</time></trkpt>
<trkpt lat="46.55226979" lon="7.00187193"><ele></ele><time>2014-4-19T5:40:28Z</time></trkpt>
<trkpt lat="46.55238773" lon="7.00202700"><ele></ele><time>2014-4-19T5:40:31Z</time></trkpt>
<trkpt lat="46.55241044" lon="7.00209565"><ele></ele><time>2014-4-19T5:40:34Z</time></trkpt>
<trkpt lat="46.55231179" lon="7.00237158"><ele></ele><time>2014-4-19T5:40:37Z</time></trkpt>
<trkpt lat="46.55219276" lon="7.00261910"><ele></ele><time>2014-4-19T5:40:40Z</time></trkpt>
<trkpt lat="46.55231539" lon="7.00268506"><ele></ele><time>2014-4-19T5:40:43Z</time></trkpt>
<trkpt lat="46.55241304" lon="7.00271876"><ele></ele><time>2014-4-19T5:40:46Z</time></trkpt>
<trkpt lat="46.55257858" lon="7.00282428"><ele></ele><time>2014-4-19T5:40:49Z</time></trkpt>
<trkpt lat="46.55262309" lon="7.00284893"><ele></ele><time>2014-4-19T5:40:52Z</time></trkpt>
<trkpt lat="46.55272007" lon="7.00297030"><ele></ele><time>2014-4-19T5:40:55Z</time></trkpt>
<trkpt lat="46.55301989" lon="7.00308052"><ele></ele><time>2014-4-19T5:40:58Z</time></trkpt>
<trkpt lat="46.55308343" lon="7.00311229"><ele></ele><time>2014-4-19T5:41:1Z</time></trkpt>
<trkpt lat="46.55309424" lon="7.00315302"><ele></ele><time>2014-4-19T5:41:4Z</time></trkpt>
<trkpt lat="46.55315392" lon="7.00330222"><ele></ele><time>2014-4-19T5:41:7Z</time></trkpt>
<trkpt lat="46.55315987" lon="7.00332577"><ele></ele><time>2014-4-19T5:41:10Z</time></trkpt>
<trkpt lat="46.55319457" lon="7.00352250"><ele></ele><time>2014-4-19T5:41:13Z</time></trkpt>
<trkpt lat="46.55323899" lon="7.00380782"><ele></ele><time>2014-4-19T5:41:16Z</time></trkpt>
<trkpt lat="46.55329825" lon="7.00412189"><ele></ele><time>2014-4-19T5:41:19Z</time></trkpt>
<trkpt lat="46.55330144" lon="7.00413303"><ele></ele><time>2014-4-19T5:41:22Z</time></trkpt>
<trkpt lat="46.55345449" lon="7.00439036"><ele></ele><time>2014-4-19T5:41:25Z</time></trkpt>
<trkpt lat="46.55366513" lon="7.00482555"><ele></ele><time>2014-4-19T5:41:28Z</time></trkpt>
<trkpt lat="46.55372389" lon="7.00493426"><ele></ele><time>2014-4-19T5:41:31Z</time></trkpt>
<trkpt lat="46.55394785" lon="7.00512327"><ele></ele><time>2014-4-19T5:41:34Z</time></trkpt>
<trkpt lat="46.55402396" lon="7.00539015"><ele></ele><time>2014-4-19T5:41:37Z</time></trkpt>
<trkpt lat="46.55413007" lon="7.00581419"><ele></ele><time>2014-4-19T5:41:40Z</time></trkpt>
<trkpt lat="46.55425220" lon="7.00604486"><ele></ele><time>2014-4-19T5:41:43Z</time></trkpt>
<trkpt lat="46.55426896" lon="7.00609038"><ele></ele><time>2014-4-19T5:41:46Z</time></trkpt>
<trkpt lat="46.55431322" lon="7.00623505"><ele></ele><time>2014-4-19T5:41:49Z</time></trkpt>
<trkpt lat="46.55445169" lon="7.00679362"><ele></ele><time>2014-4-19T5:41:52Z</time></trkpt>
<trkpt lat="46.55448563" lon="7.00730500"><ele></ele><time>2014-4-19T5:41:55Z</time></trkpt>
<trkpt lat="46.55454749" lon="7.00755126"><ele></ele><time>2014-4-19T5:41:58Z</time></trkpt>
<trkpt lat="46.55460860" lon="7.00781948"><ele></ele><time>2014-4-19T5:42:1Z</time></trkpt>
<trkpt lat="46.55466224" lon="7.00824997"><ele></ele><time>2014-4-19T5:42:4Z</time></trkpt>
<trkpt lat="46.55463944" lon="7.00829322"><ele></ele><time>2014-4-19T5:42:7Z</time></trkpt>
<trkpt lat="46.55463148" lon="7.00835777"><ele></ele><time>2014-4-19T5:42:10Z</time></trkpt>
<trkpt lat="46.55461228" lon="7.00847520"><ele></ele><time>2014-4-19T5:42:13Z</time></trkpt>
<trkpt lat="46.55451396" lon="7.00867418"><ele></ele><time>2014-4-19T5:42:16Z</time></trkpt>
<trkpt lat="46.55442679" lon="7.00899806"><ele></ele><time>2014-4-19T5:42:19Z</time></trkpt>
<trkpt lat="46.55443484" lon="7.00916704"><ele></ele><time>2014-4-19T5:42:22Z</time></trkpt>
<trkpt lat="46.55439050" lon="7.00954992"><ele></ele><time>2014-4-19T5:42:25Z</time></trkpt>
<trkpt lat="46.55443995" lon="7.00970910"><ele></ele><time>2014-4-19T5:42:28Z</time></trkpt>
<trkpt lat="46.55467305" lon="7.01014680"><ele></ele><time>2014-4-19T5:42:31Z</time></trkpt>
<trkpt lat="46.55469778" lon="7.01022802"><ele></ele><time>2014-4-19T5:42:34Z</time></trkpt>
<trkpt lat="46.55475997" lon="7.01049104"><ele></ele><time>2014-4-19T5:42:37Z</time></trkpt>
<trkpt lat="46.55502015" lon="7.01127450"><ele></ele><time>2014-4-19T5:42:40Z</time></trkpt>
<trkpt lat="46.55508678" lon="7.01140366"><ele></ele><time>2014-4-19T5:42:43Z</time></trkpt>
<trkpt lat="46.55518577" lon="7.01174162"><ele></ele><time>2014-4-19T5:42:46Z</time></trkpt>
<trkpt lat="46.55532114" lon="7.01225166"><ele></ele><time>2014-4-19T5:42:49Z</time></trkpt>
<trkpt lat="46.55540479" lon="7.01261032"><ele></ele><time>2014-4-19T5:42:52Z</time></trkpt>
<trkpt lat="46.55541904" lon="7.01263606"><ele></ele><time>2014-4-19T5:42:55Z</time></trkpt>
<trkpt lat="46.55540345" lon="7.01267445"><ele></ele><time>2014-4-19T5:42:58Z</time></trkpt>
<trkpt lat="46.55542273" lon="7.01290252"><ele></ele><time>2014-4-19T5:43:1Z</time></trkpt>
<trkpt lat="46.55540396" lon="7.01295105"><ele></ele><time>2014-4-19T5:43:4Z</time></trkpt>
<trkpt lat="46.55511302" lon="7.01309790"><ele></ele><time>2014-4-19T5:43:7Z</time></trkpt>
<trkpt lat="46.55504085" lon="7.01307594"><ele></ele><time>2014-4-19T5:43:10Z</time></trkpt>
<trkpt lat="46.55476199" lon="7.01343938"><ele></ele><time>2014-4-19T5:43:13Z</time></trkpt>
<trkpt lat="46.55462544" lon="7.01390206"><ele></ele><time>2014-4-19T5:43:16Z</time></trkpt>
<trkpt lat="46.55464523" lon="7.01433976"><ele></ele><time>2014-4-19T5:43:19Z</time></trkpt>
<trkpt lat="46.55454598" lon="7.01490437"><ele></ele><time>2014-4-19T5:43:22Z</time></trkpt>
<trkpt lat="46.55454054" lon="7.01501685"><ele></ele><time>2014-4-19T5:43:25Z</time></trkpt>
<trkpt lat="46.55454196" lon="7.01539789"><ele></ele><time>2014-4-19T5:43:28Z</time></trkpt>
<trkpt lat="46.55454288" lon="7.01546998"><ele></ele><time>2014-4-19T5:43:31Z</time></trkpt>
<trkpt lat="46.55460365" lon="7.01577147"><ele></ele><time>2014-4-19T5:43:34Z</time></trkpt>
<trkpt lat="46.55469912" lon="7.01601564"><ele></ele><time>2014-4-19T5:43:37Z</time></trkpt>
<trkpt lat="46.55474933" lon="7.01615998"><ele></ele><time>2014-4-19T5:43:40Z</time></trkpt>
<trkpt lat="46.55483826" lon="7.01659743"><ele></ele><time>2014-4-19T5:43:43Z</time></trkpt>
<trkpt lat="46.55483667" lon="7.01663012"><ele></ele><time>2014-4-19T5:43:46Z</time></trkpt>
<trkpt lat="46.55483625" lon="7.01672349"><ele></ele><time>2014-4-19T5:43:49Z</time></trkpt>
<trkpt lat="46.55478110" lon="7.01697369"><ele></ele><time>2014-4-19T5:43:52Z</time></trkpt>
<trkpt lat="46.55470465" lon="7.01719883"><ele></ele><time>2014-4-19T5:43:55Z</time></trkpt>
<trkpt lat="46.55468764" lon="7.01726857"><ele></ele><time>2014-4-19T5:43:58Z</time></trkpt>
<trkpt lat="46.55465403" lon="7.01744182"><ele></ele><time>2014-4-19T5:44:1Z</time></trkpt>
<trkpt lat="46.55461715" lon="7.01762446"><ele></ele><time>2014-4-19T5:44:4Z</time></trkpt>
<trkpt lat="46.55458597" lon="7.01787835"><ele></ele><time>2014-4-19T5:44:7Z</time></trkpt>
<trkpt lat="46.55456786" lon="7.01802168"><ele></ele><time>2014-4-19T5:44:10Z</time></trkpt>
<trkpt lat="46.55455956" lon="7.01803509"><ele></ele><time>2014-4-19T5:44:13Z</time></trkpt>
<trkpt lat="46.55457197" lon="7.01806359"><ele></ele><time>2014-4-19T5:44:16Z</time></trkpt>
<trkpt lat="46.55454540" lon="7.01835126"><ele></ele><time>2014-4-19T5:44:19Z</time></trkpt>
<trkpt lat="46.55460156" lon="7.01876038"><ele></ele><time>2014-4-19T5:44:22Z</time></trkpt>
<trkpt lat="46.55470189" lon="7.01940176"><ele></ele><time>2014-4-19T5:44:25Z</time></trkpt>
<trkpt lat="46.55470499" lon="7.01990467"><ele></ele><time>2014-4-19T5:44:28Z</time></trkpt>
<trkpt lat="46.55467163" lon="7.02043039"><ele></ele><time>2014-4-19T5:44:31Z</time></trkpt>
<trkpt lat="46.55472360" lon="7.02084688"><ele></ele><time>2014-4-19T5:44:34Z</time></trkpt>
<trkpt lat="46.55480985" lon="7.02116976"><ele></ele><time>2014-4-19T5:44:37Z</time></trkpt>
<trkpt lat="46.55483239" lon="7.02167778"><ele></ele><time>2014-4-19T5:44:40Z</time></trkpt>
<trkpt lat="46.55487045" lon="7.02213904"><ele></ele><time>2014-4-19T5:44:43Z</time></trkpt>
<trkpt lat="46.55485569" lon="7.02219956"><ele></ele><time>2014-4-19T5:44:46Z</time></trkpt>
<trkpt lat="46.55481949" lon="7.02227818"><ele></ele><time>2014-4-19T5:44:49Z</time></trkpt>
<trkpt lat="46.55475587" lon="7.02245252"><ele></ele><time>2014-4-19T5:44:52Z</time></trkpt>
<trkpt lat="46.55470482" lon="7.02244825"><ele></ele><time>2014-4-19T5:44:55Z</time></trkpt>
<trkpt lat="46.55460063" lon="7.02233274"><ele></ele><time>2014-4-19T5:44:58Z</time></trkpt>
<trkpt lat="46.55452478" lon="7.02224297"><ele></ele><time>2014-4-19T5:45:1Z</time></trkpt>
<trkpt lat="46.55437667" lon="7.02213166"><ele></ele><time>2014-4-19T5:45:4Z</time></trkpt>
<trkpt lat="46.55416737" lon="7.02216863"><ele></ele><time>2014-4-19T5:45:7Z</time></trkpt>
<trkpt lat="46.55406008" lon="7.02221506"><ele></ele><time>2014-4-19T5:45:10Z</time></trkpt>
<trkpt lat="46.55391005" lon="7.02230307"><ele></ele><time>2014-4-19T5:45:13Z</time></trkpt>
<trkpt lat="46.55368508" lon="7.02248622"><ele></ele><time>2014-4-19T5:45:16Z</time></trkpt>
<trkpt lat="46.55359657" lon="7.02252813"><ele></ele><time>2014-4-19T5:45:19Z</time></trkpt>
<trkpt lat="46.55329809" lon="7.02275896"><ele></ele><time>2014-4-19T5:45:22Z</time></trkpt>
<trkpt lat="46.55312986" lon="7.02287673"><ele></ele><time>2014-4-19T5:45:25Z</time></trkpt>
<trkpt lat="46.55274496" lon="7.02302459"><ele></ele><time>2014-4-19T5:45:28Z</time></trkpt>
<trkpt lat="46.55263122" lon="7.02307463"><ele></ele><time>2014-4-19T5:45:31Z</time></trkpt>
<trkpt lat="46.55248630" lon="7.02314453"><ele></ele><time>2014-4-19T5:45:34Z</time></trkpt>
<trkpt lat="46.55238748" lon="7.02319952"><ele></ele><time>2014-4-19T5:45:37Z</time></trkpt>
<trkpt lat="46.55220953" lon="7.02336648"><ele></ele><time>2014-4-19T5:45:40Z</time></trkpt>
<trkpt lat="46.55218975" lon="7.02338937"><ele></ele><time>2014-4-19T5:45:43Z</time></trkpt>
<trkpt lat="46.55213032" lon="7.02347696"><ele></ele><time>2014-4-19T5:45:46Z</time></trkpt>
<trkpt lat="46.55209302" lon="7.02349464"><ele></ele><time>2014-4-19T5:45:49Z</time></trkpt>
<trkpt lat="46.55200618" lon="7.02360814"><ele></ele><time>2014-4-19T5:45:52Z</time></trkpt>
<trkpt lat="46.55185372" lon="7.02372364"><ele></ele><time>2014-4-19T5:45:55Z</time></trkpt>
<trkpt lat="46.55179898" lon="7.02376387"><ele></ele><time>2014-4-19T5:45:58Z</time></trkpt>
<trkpt lat="46.55171826" lon="7.02385129"><ele></ele><time>2014-4-19T5:46:1Z</time></trkpt>
<trkpt lat="46.55164006" lon="7.02387820"><ele></ele><time>2014-4-19T5:46:4Z</time></trkpt>
<trkpt lat="46.55157678" lon="7.02388776"><ele></ele><time>2014-4-19T5:46:7Z</time></trkpt>
<trkpt lat="46.55157083" lon="7.02389924"><ele></ele><time>2014-4-19T5:46:10Z</time></trkpt>
<trkpt lat="46.55152489" lon="7.02399203"><ele></ele><time>2014-4-19T5:46:13Z</time></trkpt>
<trkpt lat="46.55146035" lon="7.02408599"><ele></ele><time>2014-4-19T5:46:16Z</time></trkpt>
<trkpt lat="46.55125022" lon="7.02419713"><ele></ele><time>2014-4-19T5:46:19Z</time></trkpt>
<trkpt lat="46.55116246" lon="7.02424726"><ele></ele><time>2014-4-19T5:46:22Z</time></trkpt>
<trkpt lat="46.55109222" lon="7.02441112"><ele></ele><time>2014-4-19T5:46:25Z</time></trkpt>
<trkpt lat="46.55091528" lon="7.02439369"><ele></ele><time>2014-4-19T5:46:28Z</time></trkpt>
<trkpt lat="46.55088527" lon="7.02442529"><ele></ele><time>2014-4-19T5:46:31Z</time></trkpt>
<trkpt lat="46.55082978" lon="7.02448036"><ele></ele><time>2014-4-19T5:46:34Z</time></trkpt>
<trkpt lat="46.55082257" lon="7.02450885"><ele></ele><time>2014-4-19T5:46:37Z</time></trkpt>
<trkpt lat="46.55072509" lon="7.02463509"><ele></ele><time>2014-4-19T5:46:40Z</time></trkpt>
<trkpt lat="46.55066977" lon="7.02470742"><ele></ele><time>2014-4-19T5:46:43Z</time></trkpt>
<trkpt lat="46.55065008" lon="7.02470792"><ele></ele><time>2014-4-19T5:46:46Z</time></trkpt>
<trkpt lat="46.55059735" lon="7.02469778"><ele></ele><time>2014-4-19T5:46:49Z</time></trkpt>
<trkpt lat="46.55047682" lon="7.02472092"><ele></ele><time>2014-4-19T5:46:52Z</time></trkpt>
<trkpt lat="46.55046953" lon="7.02475218"><ele></ele><time>2014-4-19T5:46:55Z</time></trkpt>
<trkpt lat="46.55040792" lon="7.02489727"><ele></ele><time>2014-4-19T5:46:58Z</time></trkpt>
<trkpt lat="46.55032662" lon="7.02509400"><ele></ele><time>2014-4-19T5:47:1Z</time></trkpt>
<trkpt lat="46.55023676" lon="7.02517689"><ele></ele><time>2014-4-19T5:47:4Z</time></trkpt>
<trkpt lat="46.55011129" lon="7.02520623"><ele></ele><time>2014-4-19T5:47:7Z</time></trkpt>
<trkpt lat="46.55011070" lon="7.02520665"><ele></ele><time>2014-4-19T5:47:10Z</time></trkpt>
<trkpt lat="46.54998212" lon="7.02531628"><ele></ele><time>2014-4-19T5:47:13Z</time></trkpt>
<trkpt lat="46.54996066" lon="7.02531729"><ele></ele><time>2014-4-19T5:47:16Z</time></trkpt>
<trkpt lat="46.54981314" lon="7.02539977"><ele></ele><time>2014-4-19T5:47:19Z</time></trkpt>
<trkpt lat="46.54979319" lon="7.02539415"><ele></ele><time>2014-4-19T5:47:22Z</time></trkpt>
<trkpt lat="46.54972102" lon="7.02541527"><ele></ele><time>2014-4-19T5:47:25Z</time></trkpt>
<trkpt lat="46.54968875" lon="7.02547738"><ele></ele><time>2014-4-19T5:47:28Z</time></trkpt>
<trkpt lat="46.54951190" lon="7.02546942"><ele></ele><time>2014-4-19T5:47:31Z</time></trkpt>
<trkpt lat="46.54945004" lon="7.02543807"><ele></ele><time>2014-4-19T5:47:34Z</time></trkpt>
<trkpt lat="46.54935918" lon="7.02557067"><ele></ele><time>2014-4-19T5:47:37Z</time></trkpt>
<trkpt lat="46.54916237" lon="7.02563513"><ele></ele><time>2014-4-19T5:47:40Z</time></trkpt>
<trkpt lat="46.54914175" lon="7.02563404"><ele></ele><time>2014-4-19T5:47:43Z</time></trkpt>
<trkpt lat="46.54895576" lon="7.02559398"><ele></ele><time>2014-4-19T5:47:46Z</time></trkpt>
<trkpt lat="46.54886808" lon="7.02555425"><ele></ele><time>2014-4-19T5:47:49Z</time></trkpt>
<trkpt lat="46.54882140" lon="7.02556975"><ele></ele><time>2014-4-19T5:47:52Z</time></trkpt>
<trkpt lat="46.54863942" lon="7.02578969"><ele></ele><time>2014-4-19T5:47:55Z</time></trkpt>
<trkpt lat="46.54849752" lon="7.02598399"><ele></ele><time>2014-4-19T5:47:58Z</time></trkpt>
<trkpt lat="46.54842895" lon="7.02609790"><ele></ele><time>2014-4-19T5:48:1Z</time></trkpt>
<trkpt lat="46.54837162" lon="7.02621415"><ele></ele><time>2014-4-19T5:48:4Z</time></trkpt>
<trkpt lat="46.54824757" lon="7.02641364"><ele></ele><time>2014-4-19T5:48:7Z</time></trkpt>
<trkpt lat="46.54819686" lon="7.02650794"><ele></ele><time>2014-4-19T5:48:10Z</time></trkpt>
<trkpt lat="46.54819242" lon="7.02651674"><ele></ele><time>2014-4-19T5:48:13Z</time></trkpt>
<trkpt lat="46.54808915" lon="7.02678429"><ele></ele><time>2014-4-19T5:48:16Z</time></trkpt>
<trkpt lat="46.54804272" lon="7.02686316"><ele></ele><time>2014-4-19T5:48:19Z</time></trkpt>
<trkpt lat="46.54803593" lon="7.02687448"><ele></ele><time>2014-4-19T5:48:22Z</time></trkpt>
<trkpt lat="46.54793593" lon="7.02689426"><ele></ele><time>2014-4-19T5:48:25Z</time></trkpt>
<trkpt lat="46.54780769" lon="7.02682519"><ele></ele><time>2014-4-19T5:48:28Z</time></trkpt>
<trkpt lat="46.54769688" lon="7.02677842"><ele></ele><time>2014-4-19T5:48:31Z</time></trkpt>
<trkpt lat="46.54768196" lon="7.02677608"><ele></ele><time>2014-4-19T5:48:34Z</time></trkpt>
<trkpt lat="46.54762178" lon="7.02676333"><ele></ele><time>2014-4-19T5:48:37Z</time></trkpt>
<trkpt lat="46.54736563" lon="7.02670743"><ele></ele><time>2014-4-19T5:48:40Z</time></trkpt>
<trkpt lat="46.54708969" lon="7.02679535"><ele></ele><time>2014-4-19T5:48:43Z</time></trkpt>
<trkpt lat="46.54691284" lon="7.02678077"><ele></ele><time>2014-4-19T5:48:46Z</time></trkpt>
<trkpt lat="46.54688870" lon="7.02677767"><ele></ele><time>2014-4-19T5:48:49Z</time></trkpt>
<trkpt lat="46.54682122" lon="7.02674573"><ele></ele><time>2014-4-19T5:48:52Z</time></trkpt>
<trkpt lat="46.54659902" lon="7.02669360"><ele></ele><time>2014-4-19T5:48:55Z</time></trkpt>
<trkpt lat="46.54634639" lon="7.02659997"><ele></ele><time>2014-4-19T5:48:58Z</time></trkpt>
<trkpt lat="46.54620029" lon="7.02655169"><ele></ele><time>2014-4-19T5:49:1Z</time></trkpt>
<trkpt lat="46.54613407" lon="7.02656276"><ele></ele><time>2014-4-19T5:49:4Z</time></trkpt>
<trkpt lat="46.54589728" lon="7.02654147"><ele></ele><time>2014-4-19T5:49:7Z</time></trkpt>
<trkpt lat="46.54570475" lon="7.02652705"><ele></ele><time>2014-4-19T5:49:10Z</time></trkpt>
<trkpt lat="46.54550216" lon="7.02650802"><ele></ele><time>2014-4-19T5:49:13Z</time></trkpt>
<trkpt lat="46.54527208" lon="7.02648832"><ele></ele><time>2014-4-19T5:49:16Z</time></trkpt>
<trkpt lat="46.54501475" lon="7.02649369"><ele></ele><time>2014-4-19T5:49:19Z</time></trkpt>
<trkpt lat="46.54471703" lon="7.02644172"><ele></ele><time>2014-4-19T5:49:22Z</time></trkpt>
<trkpt lat="46.54459583" lon="7.02641406"><ele></ele><time>2014-4-19T5:49:25Z</time></trkpt>
<trkpt lat="46.54433314" lon="7.02634022"><ele></ele><time>2014-4-19T5:49:28Z</time></trkpt>
<trkpt lat="46.54401379" lon="7.02631465"><ele></ele><time>2014-4-19T5:49:31Z</time></trkpt>
<trkpt lat="46.54371363" lon="7.02637190"><ele></ele><time>2014-4-19T5:49:34Z</time></trkpt>
<trkpt lat="46.54366309" lon="7.02636578"><ele></ele><time>2014-4-19T5:49:37Z</time></trkpt>
<trkpt lat="46.54365362" lon="7.02637064"><ele></ele><time>2014-4-19T5:49:40Z</time></trkpt>
<trkpt lat="46.54363208" lon="7.02638078"><ele></ele><time>2014-4-19T5:49:43Z</time></trkpt>
<trkpt lat="46.54351884" lon="7.02623779"><ele></ele><time>2014-4-19T5:49:46Z</time></trkpt>
<trkpt lat="46.54350299" lon="7.02623553"><ele></ele><time>2014-4-19T5:49:49Z</time></trkpt>
<trkpt lat="46.54345245" lon="7.02613788"><ele></ele><time>2014-4-19T5:49:52Z</time></trkpt>
<trkpt lat="46.54344323" lon="7.02611214"><ele></ele><time>2014-4-19T5:49:55Z</time></trkpt>
<trkpt lat="46.54344114" lon="7.02611458"><ele></ele><time>2014-4-19T5:49:58Z</time></trkpt>
<trkpt lat="46.54344239" lon="7.02628632"><ele></ele><time>2014-4-19T5:50:1Z</time></trkpt>
<trkpt lat="46.54340409" lon="7.02644273"><ele></ele><time>2014-4-19T5:50:4Z</time></trkpt>
<trkpt lat="46.54344608" lon="7.02653308"><ele></ele><time>2014-4-19T5:50:7Z</time></trkpt>
<trkpt lat="46.54348623" lon="7.02656083"><ele></ele><time>2014-4-19T5:50:10Z</time></trkpt>
<trkpt lat="46.54348606" lon="7.02660207"><ele></ele><time>2014-4-19T5:50:13Z</time></trkpt>
<trkpt lat="46.54338405" lon="7.02670902"><ele></ele><time>2014-4-19T5:50:16Z</time></trkpt>
<trkpt lat="46.54316587" lon="7.02690876"><ele></ele><time>2014-4-19T5:50:19Z</time></trkpt>
<trkpt lat="46.54300737" lon="7.02696668"><ele></ele><time>2014-4-19T5:50:22Z</time></trkpt>
<trkpt lat="46.54299187" lon="7.02698822"><ele></ele><time>2014-4-19T5:50:25Z</time></trkpt>
<trkpt lat="46.54297426" lon="7.02699996"><ele></ele><time>2014-4-19T5:50:28Z</time></trkpt>
<trkpt lat="46.54283806" lon="7.02699769"><ele></ele><time>2014-4-19T5:50:31Z</time></trkpt>
<trkpt lat="46.54273739" lon="7.02710213"><ele></ele><time>2014-4-19T5:50:34Z</time></trkpt>
<trkpt lat="46.54259322" lon="7.02716609"><ele></ele><time>2014-4-19T5:50:37Z</time></trkpt>
<trkpt lat="46.54257964" lon="7.02717187"><ele></ele><time>2014-4-19T5:50:40Z</time></trkpt>
<trkpt lat="46.54240639" lon="7.02716106"><ele></ele><time>2014-4-19T5:50:43Z</time></trkpt>
<trkpt lat="46.54230924" lon="7.02718126"><ele></ele><time>2014-4-19T5:50:46Z</time></trkpt>
<trkpt lat="46.54219123" lon="7.02729894"><ele></ele><time>2014-4-19T5:50:49Z</time></trkpt>
<trkpt lat="46.54209919" lon="7.02735845"><ele></ele><time>2014-4-19T5:50:52Z</time></trkpt>
<trkpt lat="46.54196466" lon="7.02745694"><ele></ele><time>2014-4-19T5:50:55Z</time></trkpt>
<trkpt lat="46.54183642" lon="7.02755526"><ele></ele><time>2014-4-19T5:50:58Z</time></trkpt>
<trkpt lat="46.54178906" lon="7.02760580"><ele></ele><time>2014-4-19T5:51:1Z</time></trkpt>
<trkpt lat="46.54171505" lon="7.02768803"><ele></ele><time>2014-4-19T5:51:4Z</time></trkpt>
<trkpt lat="46.54158195" lon="7.02781417"><ele></ele><time>2014-4-19T5:51:7Z</time></trkpt>
<trkpt lat="46.54145907" lon="7.02788106"><ele></ele><time>2014-4-19T5:51:10Z</time></trkpt>
<trkpt lat="46.54137827" lon="7.02787947"><ele></ele><time>2014-4-19T5:51:13Z</time></trkpt>
<trkpt lat="46.54137223" lon="7.02787763"><ele></ele><time>2014-4-19T5:51:16Z</time></trkpt>
<trkpt lat="46.54134373" lon="7.02786354"><ele></ele><time>2014-4-19T5:51:19Z</time></trkpt>
<trkpt lat="46.54129746" lon="7.02779758"><ele></ele><time>2014-4-19T5:51:22Z</time></trkpt>
<trkpt lat="46.54130316" lon="7.02778769"><ele></ele><time>2014-4-19T5:51:25Z</time></trkpt>
<trkpt lat="46.54127886" lon="7.02773849"><ele></ele><time>2014-4-19T5:51:28Z</time></trkpt>
<trkpt lat="46.54125094" lon="7.02766364"><ele></ele><time>2014-4-19T5:51:31Z</time></trkpt>
<trkpt lat="46.54123854" lon="7.02761292"><ele></ele><time>2014-4-19T5:51:34Z</time></trkpt>
<trkpt lat="46.54121985" lon="7.02753204"><ele></ele><time>2014-4-19T5:51:37Z</time></trkpt>
<trkpt lat="46.54112689" lon="7.02731729"><ele></ele><time>2014-4-19T5:51:40Z</time></trkpt>
<trkpt lat="46.54112354" lon="7.02716659"><ele></ele><time>2014-4-19T5:51:43Z</time></trkpt>
<trkpt lat="46.54113217" lon="7.02715997"><ele></ele><time>2014-4-19T5:51:46Z</time></trkpt>
<trkpt lat="46.54127416" lon="7.02714094"><ele></ele><time>2014-4-19T5:51:49Z</time></trkpt>
<trkpt lat="46.54128958" lon="7.02716449"><ele></ele><time>2014-4-19T5:51:52Z</time></trkpt>
<trkpt lat="46.54134264" lon="7.02720045"><ele></ele><time>2014-4-19T5:51:55Z</time></trkpt>
<trkpt lat="46.54139729" lon="7.02723733"><ele></ele><time>2014-4-19T5:51:58Z</time></trkpt>
<trkpt lat="46.54144934" lon="7.02726818"><ele></ele><time>2014-4-19T5:52:1Z</time></trkpt>
<trkpt lat="46.54155294" lon="7.02729357"><ele></ele><time>2014-4-19T5:52:4Z</time></trkpt>
<trkpt lat="46.54167867" lon="7.02729056"><ele></ele><time>2014-4-19T5:52:7Z</time></trkpt>
<trkpt lat="46.54176794" lon="7.02724974"><ele></ele><time>2014-4-19T5:52:10Z</time></trkpt>
<trkpt lat="46.54187833" lon="7.02715167"><ele></ele><time>2014-4-19T5:52:13Z</time></trkpt>
<trkpt lat="46.54190130" lon="7.02704027"><ele></ele><time>2014-4-19T5:52:16Z</time></trkpt>
<trkpt lat="46.54186936" lon="7.02702862"><ele></ele><time>2014-4-19T5:52:19Z</time></trkpt>
<trkpt lat="46.54185302" lon="7.02697959"><ele></ele><time>2014-4-19T5:52:22Z</time></trkpt>
<trkpt lat="46.54183768" lon="7.02699568"><ele></ele><time>2014-4-19T5:52:25Z</time></trkpt>
<trkpt lat="46.54171932" lon="7.02704782"><ele></ele><time>2014-4-19T5:52:28Z</time></trkpt>
<trkpt lat="46.54166593" lon="7.02699786"><ele></ele><time>2014-4-19T5:52:31Z</time></trkpt>
<trkpt lat="46.54158027" lon="7.02689828"><ele></ele><time>2014-4-19T5:52:34Z</time></trkpt>
<trkpt lat="46.54149293" lon="7.02678303"><ele></ele><time>2014-4-19T5:52:37Z</time></trkpt>
<trkpt lat="46.54146058" lon="7.02673886"><ele></ele><time>2014-4-19T5:52:40Z</time></trkpt>
<trkpt lat="46.54142043" lon="7.02669242"><ele></ele><time>2014-4-19T5:52:43Z</time></trkpt>
<trkpt lat="46.54121289" lon="7.02658019"><ele></ele><time>2014-4-19T5:52:46Z</time></trkpt>
<trkpt lat="46.54114760" lon="7.02654306"><ele></ele><time>2014-4-19T5:52:49Z</time></trkpt>
<trkpt lat="46.54105213" lon="7.02649059"><ele></ele><time>2014-4-19T5:52:52Z</time></trkpt>
<trkpt lat="46.54102472" lon="7.02647919"><ele></ele><time>2014-4-19T5:52:55Z</time></trkpt>
<trkpt lat="46.54095775" lon="7.02648640"><ele></ele><time>2014-4-19T5:52:58Z</time></trkpt>
<trkpt lat="46.54091776" lon="7.02649788"><ele></ele><time>2014-4-19T5:53:1Z</time></trkpt>
<trkpt lat="46.54076714" lon="7.02660844"><ele></ele><time>2014-4-19T5:53:4Z</time></trkpt>
<trkpt lat="46.54067796" lon="7.02668170"><ele></ele><time>2014-4-19T5:53:7Z</time></trkpt>
<trkpt lat="46.54060042" lon="7.02680776"><ele></ele><time>2014-4-19T5:53:10Z</time></trkpt>
<trkpt lat="46.54054184" lon="7.02689376"><ele></ele><time>2014-4-19T5:53:13Z</time></trkpt>
<trkpt lat="46.54047897" lon="7.02687758"><ele></ele><time>2014-4-19T5:53:16Z</time></trkpt>
<trkpt lat="46.54047168" lon="7.02686802"><ele></ele><time>2014-4-19T5:53:19Z</time></trkpt>
<trkpt lat="46.54044519" lon="7.02683408"><ele></ele><time>2014-4-19T5:53:22Z</time></trkpt>
<trkpt lat="46.54034939" lon="7.02676719"><ele></ele><time>2014-4-19T5:53:25Z</time></trkpt>
<trkpt lat="46.54027445" lon="7.02676669"><ele></ele><time>2014-4-19T5:53:28Z</time></trkpt>
<trkpt lat="46.54020279" lon="7.02668362"><ele></ele><time>2014-4-19T5:53:31Z</time></trkpt>
<trkpt lat="46.54018912" lon="7.02666376"><ele></ele><time>2014-4-19T5:53:34Z</time></trkpt>
<trkpt lat="46.54013984" lon="7.02663048"><ele></ele><time>2014-4-19T5:53:37Z</time></trkpt>
<trkpt lat="46.53996893" lon="7.02660056"><ele></ele><time>2014-4-19T5:53:40Z</time></trkpt>
<trkpt lat="46.53994597" lon="7.02664423"><ele></ele><time>2014-4-19T5:53:43Z</time></trkpt>
<trkpt lat="46.53987262" lon="7.02668094"><ele></ele><time>2014-4-19T5:53:46Z</time></trkpt>
<trkpt lat="46.53977154" lon="7.02669402"><ele></ele><time>2014-4-19T5:53:49Z</time></trkpt>
<trkpt lat="46.53976609" lon="7.02668069"><ele></ele><time>2014-4-19T5:53:52Z</time></trkpt>
<trkpt lat="46.53970624" lon="7.02661095"><ele></ele><time>2014-4-19T5:53:55Z</time></trkpt>
<trkpt lat="46.53965092" lon="7.02658773"><ele></ele><time>2014-4-19T5:53:58Z</time></trkpt>
<trkpt lat="46.53962427" lon="7.02658120"><ele></ele><time>2014-4-19T5:54:1Z</time></trkpt>
<trkpt lat="46.53954548" lon="7.02657986"><ele></ele><time>2014-4-19T5:54:4Z</time></trkpt>
<trkpt lat="46.53951296" lon="7.02657667"><ele></ele><time>2014-4-19T5:54:7Z</time></trkpt>
<trkpt lat="46.53937717" lon="7.02656502"><ele></ele><time>2014-4-19T5:54:10Z</time></trkpt>
<trkpt lat="46.53917676" lon="7.02656435"><ele></ele><time>2014-4-19T5:54:13Z</time></trkpt>
<trkpt lat="46.53892446" lon="7.02655412"><ele></ele><time>2014-4-19T5:54:16Z</time></trkpt>
<trkpt lat="46.53881667" lon="7.02652194"><ele></ele><time>2014-4-19T5:54:19Z</time></trkpt>
<trkpt lat="46.53873386" lon="7.02648807"><ele></ele><time>2014-4-19T5:54:22Z</time></trkpt>
<trkpt lat="46.53863604" lon="7.02642580"><ele></ele><time>2014-4-19T5:54:25Z</time></trkpt>
<trkpt lat="46.53862682" lon="7.02639478"><ele></ele><time>2014-4-19T5:54:28Z</time></trkpt>
<trkpt lat="46.53860109" lon="7.02633494"><ele></ele><time>2014-4-19T5:54:31Z</time></trkpt>
<trkpt lat="46.53859640" lon="7.02633175"><ele></ele><time>2014-4-19T5:54:34Z</time></trkpt>
<trkpt lat="46.53855926" lon="7.02628682"><ele></ele><time>2014-4-19T5:54:37Z</time></trkpt>
<trkpt lat="46.53853663" lon="7.02621239"><ele></ele><time>2014-4-19T5:54:40Z</time></trkpt>
<trkpt lat="46.53856513" lon="7.02618683"><ele></ele><time>2014-4-19T5:54:43Z</time></trkpt>
<trkpt lat="46.53862079" lon="7.02614123"><ele></ele><time>2014-4-19T5:54:46Z</time></trkpt>
<trkpt lat="46.53866672" lon="7.02609329"><ele></ele><time>2014-4-19T5:54:49Z</time></trkpt>
<trkpt lat="46.53871969" lon="7.02600678"><ele></ele><time>2014-4-19T5:54:52Z</time></trkpt>
<trkpt lat="46.53880326" lon="7.02595213"><ele></ele><time>2014-4-19T5:54:55Z</time></trkpt>
<trkpt lat="46.53891642" lon="7.02582557"><ele></ele><time>2014-4-19T5:54:58Z</time></trkpt>
<trkpt lat="46.53900485" lon="7.02573705"><ele></ele><time>2014-4-19T5:55:1Z</time></trkpt>
<trkpt lat="46.53912638" lon="7.02564536"><ele></ele><time>2014-4-19T5:55:4Z</time></trkpt>
<trkpt lat="46.53935236" lon="7.02552558"><ele></ele><time>2014-4-19T5:55:7Z</time></trkpt>
<trkpt lat="46.53944238" lon="7.02545634"><ele></ele><time>2014-4-19T5:55:10Z</time></trkpt>
<trkpt lat="46.53938245" lon="7.02512316"><ele></ele><time>2014-4-19T5:55:13Z</time></trkpt>
<trkpt lat="46.53939343" lon="7.02507145"><ele></ele><time>2014-4-19T5:55:16Z</time></trkpt>
<trkpt lat="46.53940173" lon="7.02494740"><ele></ele><time>2014-4-19T5:55:19Z</time></trkpt>
<trkpt lat="46.53951656" lon="7.02481873"><ele></ele><time>2014-4-19T5:55:22Z</time></trkpt>
<trkpt lat="46.53964472" lon="7.02446359"><ele></ele><time>2014-4-19T5:55:25Z</time></trkpt>
<trkpt lat="46.53967406" lon="7.02431087"><ele></ele><time>2014-4-19T5:55:28Z</time></trkpt>
<trkpt lat="46.53969543" lon="7.02424868"><ele></ele><time>2014-4-19T5:55:31Z</time></trkpt>
<trkpt lat="46.53978352" lon="7.02425346"><ele></ele><time>2014-4-19T5:55:34Z</time></trkpt>
<trkpt lat="46.53986282" lon="7.02426335"><ele></ele><time>2014-4-19T5:55:37Z</time></trkpt>
<trkpt lat="46.53998318" lon="7.02428187"><ele></ele><time>2014-4-19T5:55:40Z</time></trkpt>
<trkpt lat="46.54010673" lon="7.02421918"><ele></ele><time>2014-4-19T5:55:43Z</time></trkpt>
<trkpt lat="46.54034880" lon="7.02417014"><ele></ele><time>2014-4-19T5:55:46Z</time></trkpt>
<trkpt lat="46.54049984" lon="7.02411239"><ele></ele><time>2014-4-19T5:55:49Z</time></trkpt>
<trkpt lat="46.54063328" lon="7.02411482"><ele></ele><time>2014-4-19T5:55:52Z</time></trkpt>
<trkpt lat="46.54072917" lon="7.02397157"><ele></ele><time>2014-4-19T5:55:55Z</time></trkpt>
<trkpt lat="46.54074585" lon="7.02381223"><ele></ele><time>2014-4-19T5:55:58Z</time></trkpt>
<trkpt lat="46.54076412" lon="7.02373864"><ele></ele><time>2014-4-19T5:56:1Z</time></trkpt>
<trkpt lat="46.54076144" lon="7.02372003"><ele></ele><time>2014-4-19T5:56:4Z</time></trkpt>
<trkpt lat="46.54071534" lon="7.02366664"><ele></ele><time>2014-4-19T5:56:7Z</time></trkpt>
<trkpt lat="46.54076957" lon="7.02356815"><ele></ele><time>2014-4-19T5:56:10Z</time></trkpt>
<trkpt lat="46.54078357" lon="7.02354686"><ele></ele><time>2014-4-19T5:56:13Z</time></trkpt>
<trkpt lat="46.54076639" lon="7.02348023"><ele></ele><time>2014-4-19T5:56:16Z</time></trkpt>
<trkpt lat="46.54068684" lon="7.02334444"><ele></ele><time>2014-4-19T5:56:19Z</time></trkpt>
<trkpt lat="46.54068357" lon="7.02322978"><ele></ele><time>2014-4-19T5:56:22Z</time></trkpt>
<trkpt lat="46.54063513" lon="7.02304822"><ele></ele><time>2014-4-19T5:56:25Z</time></trkpt>
<trkpt lat="46.54052105" lon="7.02290255"><ele></ele><time>2014-4-19T5:56:28Z</time></trkpt>
<trkpt lat="46.54037554" lon="7.02272535"><ele></ele><time>2014-4-19T5:56:31Z</time></trkpt>
<trkpt lat="46.54034285" lon="7.02267003"><ele></ele><time>2014-4-19T5:56:34Z</time></trkpt>
<trkpt lat="46.54030253" lon="7.02256870"><ele></ele><time>2014-4-19T5:56:37Z</time></trkpt>
<trkpt lat="46.54023866" lon="7.02252352"><ele></ele><time>2014-4-19T5:56:40Z</time></trkpt>
<trkpt lat="46.54019315" lon="7.02248387"><ele></ele><time>2014-4-19T5:56:43Z</time></trkpt>
<trkpt lat="46.54015283" lon="7.02243157"><ele></ele><time>2014-4-19T5:56:46Z</time></trkpt>
<trkpt lat="46.54008527" lon="7.02237650"><ele></ele><time>2014-4-19T5:56:49Z</time></trkpt>
<trkpt lat="46.53993306" lon="7.02216402"><ele></ele><time>2014-4-19T5:56:52Z</time></trkpt>
<trkpt lat="46.53989794" lon="7.02214289"><ele></ele><time>2014-4-19T5:56:55Z</time></trkpt>
<trkpt lat="46.53987656" lon="7.02226552"><ele></ele><time>2014-4-19T5:56:58Z</time></trkpt>
<trkpt lat="46.53985360" lon="7.02240500"><ele></ele><time>2014-4-19T5:57:1Z</time></trkpt>
<trkpt lat="46.53985385" lon="7.02243936"><ele></ele><time>2014-4-19T5:57:4Z</time></trkpt>
<trkpt lat="46.53985133" lon="7.02253408"><ele></ele><time>2014-4-19T5:57:7Z</time></trkpt>
<trkpt lat="46.53980264" lon="7.02255327"><ele></ele><time>2014-4-19T5:57:10Z</time></trkpt>
<trkpt lat="46.53978185" lon="7.02254263"><ele></ele><time>2014-4-19T5:57:13Z</time></trkpt>
<trkpt lat="46.53973307" lon="7.02248219"><ele></ele><time>2014-4-19T5:57:16Z</time></trkpt>
<trkpt lat="46.53964665" lon="7.02243802"><ele></ele><time>2014-4-19T5:57:19Z</time></trkpt>
<trkpt lat="46.53958152" lon="7.02262008"><ele></ele><time>2014-4-19T5:57:22Z</time></trkpt>
<trkpt lat="46.53954632" lon="7.02271580"><ele></ele><time>2014-4-19T5:57:25Z</time></trkpt>
<trkpt lat="46.53933627" lon="7.02249669"><ele></ele><time>2014-4-19T5:57:28Z</time></trkpt>
<trkpt lat="46.53930425" lon="7.02241044"><ele></ele><time>2014-4-19T5:57:31Z</time></trkpt>
<trkpt lat="46.53919134" lon="7.02219143"><ele></ele><time>2014-4-19T5:57:34Z</time></trkpt>
<trkpt lat="46.53915865" lon="7.02208539"><ele></ele><time>2014-4-19T5:57:37Z</time></trkpt>
<trkpt lat="46.53910484" lon="7.02194785"><ele></ele><time>2014-4-19T5:57:40Z</time></trkpt>
<trkpt lat="46.53903854" lon="7.02192949"><ele></ele><time>2014-4-19T5:57:43Z</time></trkpt>
<trkpt lat="46.53896905" lon="7.02201717"><ele></ele><time>2014-4-19T5:57:46Z</time></trkpt>
<trkpt lat="46.53900560" lon="7.02194190"><ele></ele><time>2014-4-19T5:57:49Z</time></trkpt>
<trkpt lat="46.53899345" lon="7.02184056"><ele></ele><time>2014-4-19T5:57:52Z</time></trkpt>
<trkpt lat="46.53894223" lon="7.02168650"><ele></ele><time>2014-4-19T5:57:55Z</time></trkpt>
<trkpt lat="46.53888339" lon="7.02148307"><ele></ele><time>2014-4-19T5:57:58Z</time></trkpt>
<trkpt lat="46.53885213" lon="7.02137419"><ele></ele><time>2014-4-19T5:58:1Z</time></trkpt>
<trkpt lat="46.53881642" lon="7.02137352"><ele></ele><time>2014-4-19T5:58:4Z</time></trkpt>
<trkpt lat="46.53875113" lon="7.02135592"><ele></ele><time>2014-4-19T5:58:7Z</time></trkpt>
<trkpt lat="46.53862012" lon="7.02130915"><ele></ele><time>2014-4-19T5:58:10Z</time></trkpt>
<trkpt lat="46.53863956" lon="7.02128056"><ele></ele><time>2014-4-19T5:58:13Z</time></trkpt>
<trkpt lat="46.53869036" lon="7.02122407"><ele></ele><time>2014-4-19T5:58:16Z</time></trkpt>
<trkpt lat="46.53867804" lon="7.02113095"><ele></ele><time>2014-4-19T5:58:19Z</time></trkpt>
<trkpt lat="46.53850352" lon="7.02089508"><ele></ele><time>2014-4-19T5:58:22Z</time></trkpt>
<trkpt lat="46.53842499" lon="7.02079106"><ele></ele><time>2014-4-19T5:58:25Z</time></trkpt>
<trkpt lat="46.53828786" lon="7.02054019"><ele></ele><time>2014-4-19T5:58:28Z</time></trkpt>
<trkpt lat="46.53821753" lon="7.02048588"><ele></ele><time>2014-4-19T5:58:31Z</time></trkpt>
<trkpt lat="46.53814495" lon="7.02042829"><ele></ele><time>2014-4-19T5:58:34Z</time></trkpt>
<trkpt lat="46.53806884" lon="7.02038655"><ele></ele><time>2014-4-19T5:58:37Z</time></trkpt>
<trkpt lat="46.53804956" lon="7.02035612"><ele></ele><time>2014-4-19T5:58:40Z</time></trkpt>
<trkpt lat="46.53803372" lon="7.02019209"><ele></ele><time>2014-4-19T5:58:43Z</time></trkpt>
<trkpt lat="46.53804436" lon="7.02016535"><ele></ele><time>2014-4-19T5:58:46Z</time></trkpt>
<trkpt lat="46.53810765" lon="7.02002822"><ele></ele><time>2014-4-19T5:58:49Z</time></trkpt>
<trkpt lat="46.53810865" lon="7.01997366"><ele></ele><time>2014-4-19T5:58:52Z</time></trkpt>
<trkpt lat="46.53805383" lon="7.01987509"><ele></ele><time>2014-4-19T5:58:55Z</time></trkpt>
<trkpt lat="46.53799675" lon="7.01978599"><ele></ele><time>2014-4-19T5:58:58Z</time></trkpt>
<trkpt lat="46.53780456" lon="7.01990476"><ele></ele><time>2014-4-19T5:59:1Z</time></trkpt>
<trkpt lat="46.53768696" lon="7.02001129"><ele></ele><time>2014-4-19T5:59:4Z</time></trkpt>
<trkpt lat="46.53754069" lon="7.02012244"><ele></ele><time>2014-4-19T5:59:7Z</time></trkpt>
<trkpt lat="46.53746492" lon="7.02006142"><ele></ele><time>2014-4-19T5:59:10Z</time></trkpt>
<trkpt lat="46.53738756" lon="7.01998573"><ele></ele><time>2014-4-19T5:59:13Z</time></trkpt>
<trkpt lat="46.53735453" lon="7.01985732"><ele></ele><time>2014-4-19T5:59:16Z</time></trkpt>
<trkpt lat="46.53734967" lon="7.01978825"><ele></ele><time>2014-4-19T5:59:19Z</time></trkpt>
<trkpt lat="46.53746258" lon="7.01976243"><ele></ele><time>2014-4-19T5:59:22Z</time></trkpt>
<trkpt lat="46.53755603" lon="7.01981340"><ele></ele><time>2014-4-19T5:59:25Z</time></trkpt>
<trkpt lat="46.53759392" lon="7.01975204"><ele></ele><time>2014-4-19T5:59:28Z</time></trkpt>
<trkpt lat="46.53751614" lon="7.01963210"><ele></ele><time>2014-4-19T5:59:31Z</time></trkpt>
<trkpt lat="46.53746844" lon="7.01951022"><ele></ele><time>2014-4-19T5:59:34Z</time></trkpt>
<trkpt lat="46.53742016" lon="7.01938776"><ele></ele><time>2014-4-19T5:59:37Z</time></trkpt>
<trkpt lat="46.53737507" lon="7.01928408"><ele></ele><time>2014-4-19T5:59:40Z</time></trkpt>
<trkpt lat="46.53733576" lon="7.01920009"><ele></ele><time>2014-4-19T5:59:43Z</time></trkpt>
<trkpt lat="46.53731405" lon="7.01916237"><ele></ele><time>2014-4-19T5:59:46Z</time></trkpt>
<trkpt lat="46.53723333" lon="7.01902944"><ele></ele><time>2014-4-19T5:59:49Z</time></trkpt>
<trkpt lat="46.53722042" lon="7.01901116"><ele></ele><time>2014-4-19T5:59:52Z</time></trkpt>
<trkpt lat="46.53707198" lon="7.01880388"><ele></ele><time>2014-4-19T5:59:55Z</time></trkpt>
<trkpt lat="46.53705865" lon="7.01871478"><ele></ele><time>2014-4-19T5:59:58Z</time></trkpt>
<trkpt lat="46.53706242" lon="7.01865083"><ele></ele><time>2014-4-19T6:0:1Z</time></trkpt>
<trkpt lat="46.53706309" lon="7.01847288"><ele></ele><time>2014-4-19T6:0:4Z</time></trkpt>
<trkpt lat="46.53705304" lon="7.01820759"><ele></ele><time>2014-4-19T6:0:7Z</time></trkpt>
<trkpt lat="46.53705169" lon="7.01814774"><ele></ele><time>2014-4-19T6:0:10Z</time></trkpt>
<trkpt lat="46.53705220" lon="7.01779084"><ele></ele><time>2014-4-19T6:0:13Z</time></trkpt>
<trkpt lat="46.53686117" lon="7.01750116"><ele></ele><time>2014-4-19T6:0:16Z</time></trkpt>
<trkpt lat="46.53660058" lon="7.01730067"><ele></ele><time>2014-4-19T6:0:19Z</time></trkpt>
<trkpt lat="46.53658164" lon="7.01724024"><ele></ele><time>2014-4-19T6:0:22Z</time></trkpt>
<trkpt lat="46.53619674" lon="7.01685718"><ele></ele><time>2014-4-19T6:0:25Z</time></trkpt>
<trkpt lat="46.53583238" lon="7.01677772"><ele></ele><time>2014-4-19T6:0:28Z</time></trkpt>
<trkpt lat="46.53565384" lon="7.01666566"><ele></ele><time>2014-4-19T6:0:31Z</time></trkpt>
<trkpt lat="46.53563708" lon="7.01664596"><ele></ele><time>2014-4-19T6:0:34Z</time></trkpt>
<trkpt lat="46.53549199" lon="7.01626685"><ele></ele><time>2014-4-19T6:0:37Z</time></trkpt>
<trkpt lat="46.53528295" lon="7.01593350"><ele></ele><time>2014-4-19T6:0:40Z</time></trkpt>
<trkpt lat="46.53500953" lon="7.01558439"><ele></ele><time>2014-4-19T6:0:43Z</time></trkpt>
<trkpt lat="46.53490894" lon="7.01511987"><ele></ele><time>2014-4-19T6:0:46Z</time></trkpt>
<trkpt lat="46.53467325" lon="7.01503328"><ele></ele><time>2014-4-19T6:0:49Z</time></trkpt>
<trkpt lat="46.53449287" lon="7.01509346"><ele></ele><time>2014-4-19T6:0:52Z</time></trkpt>
<trkpt lat="46.53445716" lon="7.01510243"><ele></ele><time>2014-4-19T6:0:55Z</time></trkpt>
<trkpt lat="46.53432615" lon="7.01517628"><ele></ele><time>2014-4-19T6:0:58Z</time></trkpt>
<trkpt lat="46.53419305" lon="7.01534333"><ele></ele><time>2014-4-19T6:1:1Z</time></trkpt>
<trkpt lat="46.53408894" lon="7.01558540"><ele></ele><time>2014-4-19T6:1:4Z</time></trkpt>
<trkpt lat="46.53398082" lon="7.01596987"><ele></ele><time>2014-4-19T6:1:7Z</time></trkpt>
<trkpt lat="46.53395358" lon="7.01604095"><ele></ele><time>2014-4-19T6:1:10Z</time></trkpt>
<trkpt lat="46.53368955" lon="7.01606786"><ele></ele><time>2014-4-19T6:1:13Z</time></trkpt>
<trkpt lat="46.53347287" lon="7.01545900"><ele></ele><time>2014-4-19T6:1:16Z</time></trkpt>
<trkpt lat="46.53324380" lon="7.01488643"><ele></ele><time>2014-4-19T6:1:19Z</time></trkpt>
<trkpt lat="46.53297449" lon="7.01472005"><ele></ele><time>2014-4-19T6:1:22Z</time></trkpt>
<trkpt lat="46.53293886" lon="7.01470437"><ele></ele><time>2014-4-19T6:1:25Z</time></trkpt>
<trkpt lat="46.53277810" lon="7.01455945"><ele></ele><time>2014-4-19T6:1:28Z</time></trkpt>
<trkpt lat="46.53261222" lon="7.01446826"><ele></ele><time>2014-4-19T6:1:31Z</time></trkpt>
<trkpt lat="46.53255028" lon="7.01447546"><ele></ele><time>2014-4-19T6:1:34Z</time></trkpt>
<trkpt lat="46.53243595" lon="7.01453472"><ele></ele><time>2014-4-19T6:1:37Z</time></trkpt>
<trkpt lat="46.53228323" lon="7.01462257"><ele></ele><time>2014-4-19T6:1:40Z</time></trkpt>
<trkpt lat="46.53184184" lon="7.01454923"><ele></ele><time>2014-4-19T6:1:43Z</time></trkpt>
<trkpt lat="46.53146340" lon="7.01451193"><ele></ele><time>2014-4-19T6:1:46Z</time></trkpt>
<trkpt lat="46.53084029" lon="7.01460647"><ele></ele><time>2014-4-19T6:1:49Z</time></trkpt>
<trkpt lat="46.53082293" lon="7.01460044"><ele></ele><time>2014-4-19T6:1:52Z</time></trkpt>
<trkpt lat="46.53080466" lon="7.01456934"><ele></ele><time>2014-4-19T6:1:55Z</time></trkpt>
<trkpt lat="46.53077365" lon="7.01459474"><ele></ele><time>2014-4-19T6:1:58Z</time></trkpt>
<trkpt lat="46.53060509" lon="7.01479792"><ele></ele><time>2014-4-19T6:2:1Z</time></trkpt>
<trkpt lat="46.53050333" lon="7.01473983"><ele></ele><time>2014-4-19T6:2:4Z</time></trkpt>
<trkpt lat="46.53044558" lon="7.01420917"><ele></ele><time>2014-4-19T6:2:7Z</time></trkpt>
<trkpt lat="46.53039906" lon="7.01379293"><ele></ele><time>2014-4-19T6:2:10Z</time></trkpt>
<trkpt lat="46.53038188" lon="7.01362755"><ele></ele><time>2014-4-19T6:2:13Z</time></trkpt>
<trkpt lat="46.53034265" lon="7.01305892"><ele></ele><time>2014-4-19T6:2:16Z</time></trkpt>
<trkpt lat="46.53037928" lon="7.01250496"><ele></ele><time>2014-4-19T6:2:19Z</time></trkpt>
<trkpt lat="46.53048280" lon="7.01209685"><ele></ele><time>2014-4-19T6:2:22Z</time></trkpt>
<trkpt lat="46.53077424" lon="7.01169997"><ele></ele><time>2014-4-19T6:2:25Z</time></trkpt>
<trkpt lat="46.53123767" lon="7.01149754"><ele></ele><time>2014-4-19T6:2:28Z</time></trkpt>
<trkpt lat="46.53152484" lon="7.01146703"><ele></ele><time>2014-4-19T6:2:31Z</time></trkpt>
<trkpt lat="46.53158644" lon="7.01145404"><ele></ele><time>2014-4-19T6:2:34Z</time></trkpt>
<trkpt lat="46.53175416" lon="7.01133460"><ele></ele><time>2014-4-19T6:2:37Z</time></trkpt>
<trkpt lat="46.53174855" lon="7.01132697"><ele></ele><time>2014-4-19T6:2:40Z</time></trkpt>
<trkpt lat="46.53176548" lon="7.01130166"><ele></ele><time>2014-4-19T6:2:43Z</time></trkpt>
<trkpt lat="46.53178333" lon="7.01129495"><ele></ele><time>2014-4-19T6:2:46Z</time></trkpt>
<trkpt lat="46.53190386" lon="7.01087334"><ele></ele><time>2014-4-19T6:2:49Z</time></trkpt>
<trkpt lat="46.53177110" lon="7.01023749"><ele></ele><time>2014-4-19T6:2:52Z</time></trkpt>
<trkpt lat="46.53133473" lon="7.00984036"><ele></ele><time>2014-4-19T6:2:55Z</time></trkpt>
<trkpt lat="46.53128905" lon="7.00957130"><ele></ele><time>2014-4-19T6:2:58Z</time></trkpt>
<trkpt lat="46.53133599" lon="7.00930710"><ele></ele><time>2014-4-19T6:3:1Z</time></trkpt>
<trkpt lat="46.53117422" lon="7.00875104"><ele></ele><time>2014-4-19T6:3:4Z</time></trkpt>
<trkpt lat="46.53095093" lon="7.00855357"><ele></ele><time>2014-4-19T6:3:7Z</time></trkpt>
<trkpt lat="46.53085747" lon="7.00840705"><ele></ele><time>2014-4-19T6:3:10Z</time></trkpt>
<trkpt lat="46.53084029" lon="7.00802383"><ele></ele><time>2014-4-19T6:3:13Z</time></trkpt>
<trkpt lat="46.53081883" lon="7.00797153"><ele></ele><time>2014-4-19T6:3:16Z</time></trkpt>
<trkpt lat="46.53073467" lon="7.00791252"><ele></ele><time>2014-4-19T6:3:19Z</time></trkpt>
<trkpt lat="46.53062965" lon="7.00786097"><ele></ele><time>2014-4-19T6:3:22Z</time></trkpt>
<trkpt lat="46.53029856" lon="7.00782560"><ele></ele><time>2014-4-19T6:3:25Z</time></trkpt>
<trkpt lat="46.53016713" lon="7.00816842"><ele></ele><time>2014-4-19T6:3:28Z</time></trkpt>
<trkpt lat="46.53013612" lon="7.00840772"><ele></ele><time>2014-4-19T6:3:31Z</time></trkpt>
<trkpt lat="46.53013109" lon="7.00852364"><ele></ele><time>2014-4-19T6:3:34Z</time></trkpt>
<trkpt lat="46.52989229" lon="7.00879128"><ele></ele><time>2014-4-19T6:3:37Z</time></trkpt>
<trkpt lat="46.52983789" lon="7.00878340"><ele></ele><time>2014-4-19T6:3:40Z</time></trkpt>
<trkpt lat="46.52945316" lon="7.00866027"><ele></ele><time>2014-4-19T6:3:43Z</time></trkpt>
<trkpt lat="46.52903248" lon="7.00815325"><ele></ele><time>2014-4-19T6:3:46Z</time></trkpt>
<trkpt lat="46.52886157" lon="7.00774916"><ele></ele><time>2014-4-19T6:3:49Z</time></trkpt>
<trkpt lat="46.52859075" lon="7.00749728"><ele></ele><time>2014-4-19T6:3:52Z</time></trkpt>
<trkpt lat="46.52827023" lon="7.00750340"><ele></ele><time>2014-4-19T6:3:55Z</time></trkpt>
<trkpt lat="46.52802774" lon="7.00758873"><ele></ele><time>2014-4-19T6:3:58Z</time></trkpt>
<trkpt lat="46.52778382" lon="7.00776014"><ele></ele><time>2014-4-19T6:4:1Z</time></trkpt>
<trkpt lat="46.52759582" lon="7.00774354"><ele></ele><time>2014-4-19T6:4:4Z</time></trkpt>
<trkpt lat="46.52750454" lon="7.00743098"><ele></ele><time>2014-4-19T6:4:7Z</time></trkpt>
<trkpt lat="46.52750378" lon="7.00715982"><ele></ele><time>2014-4-19T6:4:10Z</time></trkpt>
<trkpt lat="46.52740790" lon="7.00675590"><ele></ele><time>2014-4-19T6:4:13Z</time></trkpt>
<trkpt lat="46.52719684" lon="7.00622566"><ele></ele><time>2014-4-19T6:4:16Z</time></trkpt>
<trkpt lat="46.52714202" lon="7.00601519"><ele></ele><time>2014-4-19T6:4:19Z</time></trkpt>
<trkpt lat="46.52712568" lon="7.00593506"><ele></ele><time>2014-4-19T6:4:22Z</time></trkpt>
<trkpt lat="46.52707103" lon="7.00569198"><ele></ele><time>2014-4-19T6:4:25Z</time></trkpt>
<trkpt lat="46.52703507" lon="7.00555528"><ele></ele><time>2014-4-19T6:4:28Z</time></trkpt>
<trkpt lat="46.52696298" lon="7.00533248"><ele></ele><time>2014-4-19T6:4:31Z</time></trkpt>
<trkpt lat="46.52682150" lon="7.00481138"><ele></ele><time>2014-4-19T6:4:34Z</time></trkpt>
<trkpt lat="46.52680239" lon="7.00476419"><ele></ele><time>2014-4-19T6:4:37Z</time></trkpt>
<trkpt lat="46.52647214" lon="7.00458415"><ele></ele><time>2014-4-19T6:4:40Z</time></trkpt>
<trkpt lat="46.52644247" lon="7.00457258"><ele></ele><time>2014-4-19T6:4:43Z</time></trkpt>
<trkpt lat="46.52641229" lon="7.00459999"><ele></ele><time>2014-4-19T6:4:46Z</time></trkpt>
<trkpt lat="46.52641724" lon="7.00462832"><ele></ele><time>2014-4-19T6:4:49Z</time></trkpt>
<trkpt lat="46.52650324" lon="7.00462262"><ele></ele><time>2014-4-19T6:4:52Z</time></trkpt>
<trkpt lat="46.52651506" lon="7.00466545"><ele></ele><time>2014-4-19T6:4:55Z</time></trkpt>
<trkpt lat="46.52647365" lon="7.00461675"><ele></ele><time>2014-4-19T6:4:58Z</time></trkpt>
<trkpt lat="46.52655956" lon="7.00467350"><ele></ele><time>2014-4-19T6:5:1Z</time></trkpt>
<trkpt lat="46.52658488" lon="7.00468523"><ele></ele><time>2014-4-19T6:5:4Z</time></trkpt>
<trkpt lat="46.52663148" lon="7.00470795"><ele></ele><time>2014-4-19T6:5:7Z</time></trkpt>
<trkpt lat="46.52669485" lon="7.00473854"><ele></ele><time>2014-4-19T6:5:10Z</time></trkpt>
<trkpt lat="46.52686710" lon="7.00497223"><ele></ele><time>2014-4-19T6:5:13Z</time></trkpt>
<trkpt lat="46.52692895" lon="7.00525638"><ele></ele><time>2014-4-19T6:5:16Z</time></trkpt>
<trkpt lat="46.52702719" lon="7.00553298"><ele></ele><time>2014-4-19T6:5:19Z</time></trkpt>
<trkpt lat="46.52713465" lon="7.00595249"><ele></ele><time>2014-4-19T6:5:22Z</time></trkpt>
<trkpt lat="46.52721838" lon="7.00631426"><ele></ele><time>2014-4-19T6:5:25Z</time></trkpt>
<trkpt lat="46.52734034" lon="7.00666127"><ele></ele><time>2014-4-19T6:5:28Z</time></trkpt>
<trkpt lat="46.52737026" lon="7.00672145"><ele></ele><time>2014-4-19T6:5:31Z</time></trkpt>
<trkpt lat="46.52749632" lon="7.00699269"><ele></ele><time>2014-4-19T6:5:34Z</time></trkpt>
<trkpt lat="46.52751460" lon="7.00746886"><ele></ele><time>2014-4-19T6:5:37Z</time></trkpt>
<trkpt lat="46.52764862" lon="7.00783138"><ele></ele><time>2014-4-19T6:5:40Z</time></trkpt>
<trkpt lat="46.52780293" lon="7.00776919"><ele></ele><time>2014-4-19T6:5:43Z</time></trkpt>
<trkpt lat="46.52792799" lon="7.00755654"><ele></ele><time>2014-4-19T6:5:46Z</time></trkpt>
<trkpt lat="46.52790075" lon="7.00748269"><ele></ele><time>2014-4-19T6:5:49Z</time></trkpt>
<trkpt lat="46.52791567" lon="7.00744565"><ele></ele><time>2014-4-19T6:5:52Z</time></trkpt>
<trkpt lat="46.52792556" lon="7.00744799"><ele></ele><time>2014-4-19T6:5:55Z</time></trkpt>
<trkpt lat="46.52794526" lon="7.00740566"><ele></ele><time>2014-4-19T6:5:58Z</time></trkpt>
<trkpt lat="46.52796563" lon="7.00731455"><ele></ele><time>2014-4-19T6:6:1Z</time></trkpt>
<trkpt lat="46.52794870" lon="7.00722897"><ele></ele><time>2014-4-19T6:6:4Z</time></trkpt>
<trkpt lat="46.52790276" lon="7.00697634"><ele></ele><time>2014-4-19T6:6:7Z</time></trkpt>
<trkpt lat="46.52787678" lon="7.00681197"><ele></ele><time>2014-4-19T6:6:10Z</time></trkpt>
<trkpt lat="46.52783177" lon="7.00656127"><ele></ele><time>2014-4-19T6:6:13Z</time></trkpt>
<trkpt lat="46.52778072" lon="7.00624678"><ele></ele><time>2014-4-19T6:6:16Z</time></trkpt>
<trkpt lat="46.52776362" lon="7.00599809"><ele></ele><time>2014-4-19T6:6:19Z</time></trkpt>
<trkpt lat="46.52775398" lon="7.00574865"><ele></ele><time>2014-4-19T6:6:22Z</time></trkpt>
<trkpt lat="46.52774912" lon="7.00555695"><ele></ele><time>2014-4-19T6:6:25Z</time></trkpt>
<trkpt lat="46.52781224" lon="7.00532209"><ele></ele><time>2014-4-19T6:6:28Z</time></trkpt>
<trkpt lat="46.52783143" lon="7.00521304"><ele></ele><time>2014-4-19T6:6:31Z</time></trkpt>
<trkpt lat="46.52784979" lon="7.00498472"><ele></ele><time>2014-4-19T6:6:34Z</time></trkpt>
<trkpt lat="46.52785658" lon="7.00493954"><ele></ele><time>2014-4-19T6:6:37Z</time></trkpt>
<trkpt lat="46.52787083" lon="7.00480233"><ele></ele><time>2014-4-19T6:6:40Z</time></trkpt>
<trkpt lat="46.52777729" lon="7.00453294"><ele></ele><time>2014-4-19T6:6:43Z</time></trkpt>
<trkpt lat="46.52767193" lon="7.00425114"><ele></ele><time>2014-4-19T6:6:46Z</time></trkpt>
<trkpt lat="46.52766748" lon="7.00405324"><ele></ele><time>2014-4-19T6:6:49Z</time></trkpt>
<trkpt lat="46.52770596" lon="7.00380002"><ele></ele><time>2014-4-19T6:6:52Z</time></trkpt>
<trkpt lat="46.52782322" lon="7.00342124"><ele></ele><time>2014-4-19T6:6:55Z</time></trkpt>
<trkpt lat="46.52782724" lon="7.00340155"><ele></ele><time>2014-4-19T6:6:58Z</time></trkpt>
<trkpt lat="46.52781735" lon="7.00332913"><ele></ele><time>2014-4-19T6:7:1Z</time></trkpt>
<trkpt lat="46.52771677" lon="7.00320264"><ele></ele><time>2014-4-19T6:7:4Z</time></trkpt>
<trkpt lat="46.52771048" lon="7.00317297"><ele></ele><time>2014-4-19T6:7:7Z</time></trkpt>
<trkpt lat="46.52772339" lon="7.00316308"><ele></ele><time>2014-4-19T6:7:10Z</time></trkpt>
<trkpt lat="46.52776857" lon="7.00316224"><ele></ele><time>2014-4-19T6:7:13Z</time></trkpt>
<trkpt lat="46.52784543" lon="7.00305789"><ele></ele><time>2014-4-19T6:7:16Z</time></trkpt>
<trkpt lat="46.52783168" lon="7.00283786"><ele></ele><time>2014-4-19T6:7:19Z</time></trkpt>
<trkpt lat="46.52791802" lon="7.00264793"><ele></ele><time>2014-4-19T6:7:22Z</time></trkpt>
<trkpt lat="46.52801433" lon="7.00248750"><ele></ele><time>2014-4-19T6:7:25Z</time></trkpt>
<trkpt lat="46.52806378" lon="7.00242396"><ele></ele><time>2014-4-19T6:7:28Z</time></trkpt>
<trkpt lat="46.52812949" lon="7.00240209"><ele></ele><time>2014-4-19T6:7:31Z</time></trkpt>
<trkpt lat="46.52823318" lon="7.00238767"><ele></ele><time>2014-4-19T6:7:34Z</time></trkpt>
<trkpt lat="46.52839746" lon="7.00233906"><ele></ele><time>2014-4-19T6:7:37Z</time></trkpt>
<trkpt lat="46.52846930" lon="7.00233067"><ele></ele><time>2014-4-19T6:7:40Z</time></trkpt>
<trkpt lat="46.52861028" lon="7.00235724"><ele></ele><time>2014-4-19T6:7:43Z</time></trkpt>
<trkpt lat="46.52869334" lon="7.00235054"><ele></ele><time>2014-4-19T6:7:46Z</time></trkpt>
<trkpt lat="46.52888680" lon="7.00243017"><ele></ele><time>2014-4-19T6:7:49Z</time></trkpt>
<trkpt lat="46.52906475" lon="7.00247467"><ele></ele><time>2014-4-19T6:7:52Z</time></trkpt>
<trkpt lat="46.52914404" lon="7.00259973"><ele></ele><time>2014-4-19T6:7:55Z</time></trkpt>
<trkpt lat="46.52916273" lon="7.00268732"><ele></ele><time>2014-4-19T6:7:58Z</time></trkpt>
<trkpt lat="46.52917723" lon="7.00293023"><ele></ele><time>2014-4-19T6:8:1Z</time></trkpt>
<trkpt lat="46.52922476" lon="7.00306250"><ele></ele><time>2014-4-19T6:8:4Z</time></trkpt>
<trkpt lat="46.52923213" lon="7.00306962"><ele></ele><time>2014-4-19T6:8:7Z</time></trkpt>
<trkpt lat="46.52922886" lon="7.00306543"><ele></ele><time>2014-4-19T6:8:10Z</time></trkpt>
<trkpt lat="46.52922174" lon="7.00311916"><ele></ele><time>2014-4-19T6:8:13Z</time></trkpt>
<trkpt lat="46.52923473" lon="7.00321999"><ele></ele><time>2014-4-19T6:8:16Z</time></trkpt>
<trkpt lat="46.52929408" lon="7.00331479"><ele></ele><time>2014-4-19T6:8:19Z</time></trkpt>
<trkpt lat="46.52931193" lon="7.00331488"><ele></ele><time>2014-4-19T6:8:22Z</time></trkpt>
<trkpt lat="46.52938133" lon="7.00328856"><ele></ele><time>2014-4-19T6:8:25Z</time></trkpt>
<trkpt lat="46.52939575" lon="7.00325989"><ele></ele><time>2014-4-19T6:8:28Z</time></trkpt>
<trkpt lat="46.52944084" lon="7.00279227"><ele></ele><time>2014-4-19T6:8:31Z</time></trkpt>
<trkpt lat="46.52950513" lon="7.00243444"><ele></ele><time>2014-4-19T6:8:34Z</time></trkpt>
<trkpt lat="46.52952257" lon="7.00219950"><ele></ele><time>2014-4-19T6:8:37Z</time></trkpt>
<trkpt lat="46.52950739" lon="7.00205063"><ele></ele><time>2014-4-19T6:8:40Z</time></trkpt>
<trkpt lat="46.52947797" lon="7.00181829"><ele></ele><time>2014-4-19T6:8:43Z</time></trkpt>
<trkpt lat="46.52943397" lon="7.00157706"><ele></ele><time>2014-4-19T6:8:46Z</time></trkpt>
<trkpt lat="46.52937504" lon="7.00127145"><ele></ele><time>2014-4-19T6:8:49Z</time></trkpt>
<trkpt lat="46.52936826" lon="7.00114162"><ele></ele><time>2014-4-19T6:8:52Z</time></trkpt>
<trkpt lat="46.52937395" lon="7.00109535"><ele></ele><time>2014-4-19T6:8:55Z</time></trkpt>
<trkpt lat="46.52938636" lon="7.00085060"><ele></ele><time>2014-4-19T6:8:58Z</time></trkpt>
<trkpt lat="46.52936884" lon="7.00054843"><ele></ele><time>2014-4-19T6:9:1Z</time></trkpt>
<trkpt lat="46.52931520" lon="7.00023369"><ele></ele><time>2014-4-19T6:9:4Z</time></trkpt>
<trkpt lat="46.52919676" lon="6.99994544"><ele></ele><time>2014-4-19T6:9:7Z</time></trkpt>
<trkpt lat="46.52909040" lon="6.99964947"><ele></ele><time>2014-4-19T6:9:10Z</time></trkpt>
<trkpt lat="46.52894757" lon="6.99938552"><ele></ele><time>2014-4-19T6:9:13Z</time></trkpt>
<trkpt lat="46.52881656" lon="6.99914765"><ele></ele><time>2014-4-19T6:9:16Z</time></trkpt>
<trkpt lat="46.52858446" lon="6.99880575"><ele></ele><time>2014-4-19T6:9:19Z</time></trkpt>
<trkpt lat="46.52836067" lon="6.99860970"><ele></ele><time>2014-4-19T6:9:22Z</time></trkpt>
<trkpt lat="46.52822832" lon="6.99840794"><ele></ele><time>2014-4-19T6:9:25Z</time></trkpt>
<trkpt lat="46.52820116" lon="6.99831708"><ele></ele><time>2014-4-19T6:9:28Z</time></trkpt>
<trkpt lat="46.52808649" lon="6.99797334"><ele></ele><time>2014-4-19T6:9:31Z</time></trkpt>
<trkpt lat="46.52804618" lon="6.99786396"><ele></ele><time>2014-4-19T6:9:34Z</time></trkpt>
<trkpt lat="46.52803872" lon="6.99784627"><ele></ele><time>2014-4-19T6:9:37Z</time></trkpt>
<trkpt lat="46.52781408" lon="6.99759314"><ele></ele><time>2014-4-19T6:9:40Z</time></trkpt>
<trkpt lat="46.52777435" lon="6.99756145"><ele></ele><time>2014-4-19T6:9:43Z</time></trkpt>
<trkpt lat="46.52769883" lon="6.99724646"><ele></ele><time>2014-4-19T6:9:46Z</time></trkpt>
<trkpt lat="46.52762675" lon="6.99699375"><ele></ele><time>2014-4-19T6:9:49Z</time></trkpt>
<trkpt lat="46.52736582" lon="6.99689903"><ele></ele><time>2014-4-19T6:9:52Z</time></trkpt>
<trkpt lat="46.52739088" lon="6.99680390"><ele></ele><time>2014-4-19T6:9:55Z</time></trkpt>
<trkpt lat="46.52754117" lon="6.99659385"><ele></ele><time>2014-4-19T6:9:58Z</time></trkpt>
<trkpt lat="46.52760093" lon="6.99630886"><ele></ele><time>2014-4-19T6:10:1Z</time></trkpt>
<trkpt lat="46.52760487" lon="6.99629579"><ele></ele><time>2014-4-19T6:10:4Z</time></trkpt>
<trkpt lat="46.52761200" lon="6.99588809"><ele></ele><time>2014-4-19T6:10:7Z</time></trkpt>
<trkpt lat="46.52760319" lon="6.99587024"><ele></ele><time>2014-4-19T6:10:10Z</time></trkpt>
<trkpt lat="46.52759967" lon="6.99598339"><ele></ele><time>2014-4-19T6:10:13Z</time></trkpt>
<trkpt lat="46.52752122" lon="6.99662679"><ele></ele><time>2014-4-19T6:10:16Z</time></trkpt>
<trkpt lat="46.52745886" lon="6.99673785"><ele></ele><time>2014-4-19T6:10:19Z</time></trkpt>
<trkpt lat="46.52736657" lon="6.99688755"><ele></ele><time>2014-4-19T6:10:22Z</time></trkpt>
<trkpt lat="46.52741619" lon="6.99699668"><ele></ele><time>2014-4-19T6:10:25Z</time></trkpt>
<trkpt lat="46.52772314" lon="6.99708084"><ele></ele><time>2014-4-19T6:10:28Z</time></trkpt>
<trkpt lat="46.52790226" lon="6.99710112"><ele></ele><time>2014-4-19T6:10:31Z</time></trkpt>
<trkpt lat="46.52800242" lon="6.99686693"><ele></ele><time>2014-4-19T6:10:34Z</time></trkpt>
<trkpt lat="46.52799396" lon="6.99659209"><ele></ele><time>2014-4-19T6:10:37Z</time></trkpt>
<trkpt lat="46.52797342" lon="6.99618263"><ele></ele><time>2014-4-19T6:10:40Z</time></trkpt>
<trkpt lat="46.52799195" lon="6.99591366"><ele></ele><time>2014-4-19T6:10:43Z</time></trkpt>
<trkpt lat="46.52800209" lon="6.99553865"><ele></ele><time>2014-4-19T6:10:46Z</time></trkpt>
<trkpt lat="46.52803319" lon="6.99532575"><ele></ele><time>2014-4-19T6:10:49Z</time></trkpt>
<trkpt lat="46.52807434" lon="6.99513238"><ele></ele><time>2014-4-19T6:10:52Z</time></trkpt>
<trkpt lat="46.52811089" lon="6.99504554"><ele></ele><time>2014-4-19T6:10:55Z</time></trkpt>
<trkpt lat="46.52811608" lon="6.99504797"><ele></ele><time>2014-4-19T6:10:58Z</time></trkpt>
<trkpt lat="46.52809965" lon="6.99505007"><ele></ele><time>2014-4-19T6:11:1Z</time></trkpt>
<trkpt lat="46.52810225" lon="6.99505007"><ele></ele><time>2014-4-19T6:11:4Z</time></trkpt>
<trkpt lat="46.52810259" lon="6.99505015"><ele></ele><time>2014-4-19T6:11:7Z</time></trkpt>
<trkpt lat="46.52810267" lon="6.99505015"><ele></ele><time>2014-4-19T6:11:10Z</time></trkpt>
<trkpt lat="46.52810292" lon="6.99505032"><ele></ele><time>2014-4-19T6:11:13Z</time></trkpt>
<trkpt lat="46.52810326" lon="6.99505032"><ele></ele><time>2014-4-19T6:11:16Z</time></trkpt>
<trkpt lat="46.52810343" lon="6.99505024"><ele></ele><time>2014-4-19T6:11:19Z</time></trkpt>
<trkpt lat="46.52810359" lon="6.99505049"><ele></ele><time>2014-4-19T6:11:22Z</time></trkpt>
<trkpt lat="46.52810368" lon="6.99505057"><ele></ele><time>2014-4-19T6:11:25Z</time></trkpt>
<trkpt lat="46.52810376" lon="6.99505066"><ele></ele><time>2014-4-19T6:11:28Z</time></trkpt>
<trkpt lat="46.52810418" lon="6.99505107"><ele></ele><time>2014-4-19T6:11:31Z</time></trkpt>
<trkpt lat="46.52810485" lon="6.99506172"><ele></ele><time>2014-4-19T6:11:34Z</time></trkpt>
<trkpt lat="46.52810862" lon="6.99501067"><ele></ele><time>2014-4-19T6:11:37Z</time></trkpt>
<trkpt lat="46.52812053" lon="6.99492669"><ele></ele><time>2014-4-19T6:11:40Z</time></trkpt>
<trkpt lat="46.52814534" lon="6.99475075"><ele></ele><time>2014-4-19T6:11:43Z</time></trkpt>
<trkpt lat="46.52817786" lon="6.99462293"><ele></ele><time>2014-4-19T6:11:46Z</time></trkpt>
<trkpt lat="46.52817819" lon="6.99460214"><ele></ele><time>2014-4-19T6:11:49Z</time></trkpt>
<trkpt lat="46.52820242" lon="6.99450474"><ele></ele><time>2014-4-19T6:11:52Z</time></trkpt>
<trkpt lat="46.52820585" lon="6.99447708"><ele></ele><time>2014-4-19T6:11:55Z</time></trkpt>
<trkpt lat="46.52826788" lon="6.99420090"><ele></ele><time>2014-4-19T6:11:58Z</time></trkpt>
<trkpt lat="46.52827626" lon="6.99394198"><ele></ele><time>2014-4-19T6:12:1Z</time></trkpt>
<trkpt lat="46.52828816" lon="6.99378859"><ele></ele><time>2014-4-19T6:12:4Z</time></trkpt>
<trkpt lat="46.52832136" lon="6.99349799"><ele></ele><time>2014-4-19T6:12:7Z</time></trkpt>
<trkpt lat="46.52834214" lon="6.99341845"><ele></ele><time>2014-4-19T6:12:10Z</time></trkpt>
<trkpt lat="46.52838263" lon="6.99317604"><ele></ele><time>2014-4-19T6:12:13Z</time></trkpt>
<trkpt lat="46.52850945" lon="6.99278486"><ele></ele><time>2014-4-19T6:12:16Z</time></trkpt>
<trkpt lat="46.52862537" lon="6.99262208"><ele></ele><time>2014-4-19T6:12:19Z</time></trkpt>
<trkpt lat="46.52868429" lon="6.99226535"><ele></ele><time>2014-4-19T6:12:22Z</time></trkpt>
<trkpt lat="46.52871195" lon="6.99209847"><ele></ele><time>2014-4-19T6:12:25Z</time></trkpt>
<trkpt lat="46.52877155" lon="6.99191222"><ele></ele><time>2014-4-19T6:12:28Z</time></trkpt>
<trkpt lat="46.52886434" lon="6.99177777"><ele></ele><time>2014-4-19T6:12:31Z</time></trkpt>
<trkpt lat="46.52888085" lon="6.99165188"><ele></ele><time>2014-4-19T6:12:34Z</time></trkpt>
<trkpt lat="46.52891513" lon="6.99151634"><ele></ele><time>2014-4-19T6:12:37Z</time></trkpt>
<trkpt lat="46.52905930" lon="6.99123228"><ele></ele><time>2014-4-19T6:12:40Z</time></trkpt>
<trkpt lat="46.52912065" lon="6.99117067"><ele></ele><time>2014-4-19T6:12:43Z</time></trkpt>
<trkpt lat="46.52912820" lon="6.99103824"><ele></ele><time>2014-4-19T6:12:46Z</time></trkpt>
<trkpt lat="46.52907782" lon="6.99077362"><ele></ele><time>2014-4-19T6:12:49Z</time></trkpt>
<trkpt lat="46.52908838" lon="6.99070129"><ele></ele><time>2014-4-19T6:12:52Z</time></trkpt>
<trkpt lat="46.52911328" lon="6.99064823"><ele></ele><time>2014-4-19T6:12:55Z</time></trkpt>
<trkpt lat="46.52914253" lon="6.99057765"><ele></ele><time>2014-4-19T6:12:58Z</time></trkpt>
<trkpt lat="46.52915762" lon="6.99039820"><ele></ele><time>2014-4-19T6:13:1Z</time></trkpt>
<trkpt lat="46.52918167" lon="6.99030298"><ele></ele><time>2014-4-19T6:13:4Z</time></trkpt>
<trkpt lat="46.52921068" lon="6.98998874"><ele></ele><time>2014-4-19T6:13:7Z</time></trkpt>
<trkpt lat="46.52925443" lon="6.98983066"><ele></ele><time>2014-4-19T6:13:10Z</time></trkpt>
<trkpt lat="46.52939902" lon="6.98943545"><ele></ele><time>2014-4-19T6:13:13Z</time></trkpt>
<trkpt lat="46.52949608" lon="6.98931986"><ele></ele><time>2014-4-19T6:13:16Z</time></trkpt>
<trkpt lat="46.52945492" lon="6.98919464"><ele></ele><time>2014-4-19T6:13:19Z</time></trkpt>
<trkpt lat="46.52938049" lon="6.98910194"><ele></ele><time>2014-4-19T6:13:22Z</time></trkpt>
<trkpt lat="46.52936532" lon="6.98909665"><ele></ele><time>2014-4-19T6:13:25Z</time></trkpt>
<trkpt lat="46.52934990" lon="6.98906807"><ele></ele><time>2014-4-19T6:13:28Z</time></trkpt>
<trkpt lat="46.52938737" lon="6.98904762"><ele></ele><time>2014-4-19T6:13:31Z</time></trkpt>
<trkpt lat="46.52939164" lon="6.98904603"><ele></ele><time>2014-4-19T6:13:34Z</time></trkpt>
<trkpt lat="46.52957202" lon="6.98914116"><ele></ele><time>2014-4-19T6:13:37Z</time></trkpt>
<trkpt lat="46.52963396" lon="6.98918073"><ele></ele><time>2014-4-19T6:13:40Z</time></trkpt>
<trkpt lat="46.52977419" lon="6.98917989"><ele></ele><time>2014-4-19T6:13:43Z</time></trkpt>
<trkpt lat="46.53008642" lon="6.98908743"><ele></ele><time>2014-4-19T6:13:46Z</time></trkpt>
<trkpt lat="46.53050073" lon="6.98893899"><ele></ele><time>2014-4-19T6:13:49Z</time></trkpt>
<trkpt lat="46.53069419" lon="6.98888895"><ele></ele><time>2014-4-19T6:13:52Z</time></trkpt>
<trkpt lat="46.53090935" lon="6.98877563"><ele></ele><time>2014-4-19T6:13:55Z</time></trkpt>
<trkpt lat="46.53104958" lon="6.98877127"><ele></ele><time>2014-4-19T6:13:58Z</time></trkpt>
<trkpt lat="46.53121102" lon="6.98875568"><ele></ele><time>2014-4-19T6:14:1Z</time></trkpt>
<trkpt lat="46.53134823" lon="6.98872768"><ele></ele><time>2014-4-19T6:14:4Z</time></trkpt>
<trkpt lat="46.53149567" lon="6.98874990"><ele></ele><time>2014-4-19T6:14:7Z</time></trkpt>
<trkpt lat="46.53164989" lon="6.98882542"><ele></ele><time>2014-4-19T6:14:10Z</time></trkpt>
<trkpt lat="46.53182373" lon="6.98886716"><ele></ele><time>2014-4-19T6:14:13Z</time></trkpt>
<trkpt lat="46.53194167" lon="6.98890563"><ele></ele><time>2014-4-19T6:14:16Z</time></trkpt>
<trkpt lat="46.53226973" lon="6.98899582"><ele></ele><time>2014-4-19T6:14:19Z</time></trkpt>
<trkpt lat="46.53250166" lon="6.98898266"><ele></ele><time>2014-4-19T6:14:22Z</time></trkpt>
<trkpt lat="46.53265798" lon="6.98898274"><ele></ele><time>2014-4-19T6:14:25Z</time></trkpt>
<trkpt lat="46.53273736" lon="6.98898786"><ele></ele><time>2014-4-19T6:14:28Z</time></trkpt>
<trkpt lat="46.53318739" lon="6.98893639"><ele></ele><time>2014-4-19T6:14:31Z</time></trkpt>
<trkpt lat="46.53349542" lon="6.98892466"><ele></ele><time>2014-4-19T6:14:34Z</time></trkpt>
<trkpt lat="46.53380706" lon="6.98892860"><ele></ele><time>2014-4-19T6:14:37Z</time></trkpt>
<trkpt lat="46.53400772" lon="6.98893983"><ele></ele><time>2014-4-19T6:14:40Z</time></trkpt>
<trkpt lat="46.53430109" lon="6.98899213"><ele></ele><time>2014-4-19T6:14:43Z</time></trkpt>
<trkpt lat="46.53460544" lon="6.98907947"><ele></ele><time>2014-4-19T6:14:46Z</time></trkpt>
<trkpt lat="46.53481683" lon="6.98916757"><ele></ele><time>2014-4-19T6:14:49Z</time></trkpt>
<trkpt lat="46.53512713" lon="6.98931467"><ele></ele><time>2014-4-19T6:14:52Z</time></trkpt>
<trkpt lat="46.53540985" lon="6.98933973"><ele></ele><time>2014-4-19T6:14:55Z</time></trkpt>
<trkpt lat="46.53574839" lon="6.98929824"><ele></ele><time>2014-4-19T6:14:58Z</time></trkpt>
<trkpt lat="46.53598778" lon="6.98935976"><ele></ele><time>2014-4-19T6:15:1Z</time></trkpt>
<trkpt lat="46.53630420" lon="6.98935272"><ele></ele><time>2014-4-19T6:15:4Z</time></trkpt>
<trkpt lat="46.53658616" lon="6.98923973"><ele></ele><time>2014-4-19T6:15:7Z</time></trkpt>
<trkpt lat="46.53665448" lon="6.98921124"><ele></ele><time>2014-4-19T6:15:10Z</time></trkpt>
<trkpt lat="46.53677375" lon="6.98916614"><ele></ele><time>2014-4-19T6:15:13Z</time></trkpt>
<trkpt lat="46.53700174" lon="6.98919372"><ele></ele><time>2014-4-19T6:15:16Z</time></trkpt>
<trkpt lat="46.53714616" lon="6.98927888"><ele></ele><time>2014-4-19T6:15:19Z</time></trkpt>
<trkpt lat="46.53756576" lon="6.98942975"><ele></ele><time>2014-4-19T6:15:22Z</time></trkpt>
<trkpt lat="46.53786273" lon="6.98945615"><ele></ele><time>2014-4-19T6:15:25Z</time></trkpt>
<trkpt lat="46.53793858" lon="6.98931542"><ele></ele><time>2014-4-19T6:15:28Z</time></trkpt>
<trkpt lat="46.53783574" lon="6.98923487"><ele></ele><time>2014-4-19T6:15:31Z</time></trkpt>
<trkpt lat="46.53761865" lon="6.98910294"><ele></ele><time>2014-4-19T6:15:34Z</time></trkpt>
<trkpt lat="46.53737976" lon="6.98886263"><ele></ele><time>2014-4-19T6:15:37Z</time></trkpt>
<trkpt lat="46.53761228" lon="6.98885953"><ele></ele><time>2014-4-19T6:15:40Z</time></trkpt>
<trkpt lat="46.53784739" lon="6.98877253"><ele></ele><time>2014-4-19T6:15:43Z</time></trkpt>
<trkpt lat="46.53809926" lon="6.98887403"><ele></ele><time>2014-4-19T6:15:46Z</time></trkpt>
<trkpt lat="46.53812776" lon="6.98894000"><ele></ele><time>2014-4-19T6:15:49Z</time></trkpt>
<trkpt lat="46.53821879" lon="6.98926002"><ele></ele><time>2014-4-19T6:15:52Z</time></trkpt>
<trkpt lat="46.53835592" lon="6.98956923"><ele></ele><time>2014-4-19T6:15:55Z</time></trkpt>
<trkpt lat="46.53844602" lon="6.98960720"><ele></ele><time>2014-4-19T6:15:58Z</time></trkpt>
<trkpt lat="46.53877853" lon="6.98968079"><ele></ele><time>2014-4-19T6:16:1Z</time></trkpt>
<trkpt lat="46.53884970" lon="6.98971088"><ele></ele><time>2014-4-19T6:16:4Z</time></trkpt>
<trkpt lat="46.53893678" lon="6.98973024"><ele></ele><time>2014-4-19T6:16:7Z</time></trkpt>
<trkpt lat="46.53911146" lon="6.98987156"><ele></ele><time>2014-4-19T6:16:10Z</time></trkpt>
<trkpt lat="46.53915245" lon="6.98996083"><ele></ele><time>2014-4-19T6:16:13Z</time></trkpt>
<trkpt lat="46.53926527" lon="6.99019795"><ele></ele><time>2014-4-19T6:16:16Z</time></trkpt>
<trkpt lat="46.53941497" lon="6.99048738"><ele></ele><time>2014-4-19T6:16:19Z</time></trkpt>
<trkpt lat="46.53944163" lon="6.99052024"><ele></ele><time>2014-4-19T6:16:22Z</time></trkpt>
<trkpt lat="46.53962829" lon="6.99069869"><ele></ele><time>2014-4-19T6:16:25Z</time></trkpt>
<trkpt lat="46.53964254" lon="6.99070849"><ele></ele><time>2014-4-19T6:16:28Z</time></trkpt>
<trkpt lat="46.53982225" lon="6.99084202"><ele></ele><time>2014-4-19T6:16:31Z</time></trkpt>
<trkpt lat="46.53983574" lon="6.99085300"><ele></ele><time>2014-4-19T6:16:34Z</time></trkpt>
<trkpt lat="46.54005619" lon="6.99100127"><ele></ele><time>2014-4-19T6:16:37Z</time></trkpt>
<trkpt lat="46.54036766" lon="6.99118978"><ele></ele><time>2014-4-19T6:16:40Z</time></trkpt>
<trkpt lat="46.54062029" lon="6.99120596"><ele></ele><time>2014-4-19T6:16:43Z</time></trkpt>
<trkpt lat="46.54081115" lon="6.99124158"><ele></ele><time>2014-4-19T6:16:46Z</time></trkpt>
<trkpt lat="46.54095213" lon="6.99127469"><ele></ele><time>2014-4-19T6:16:49Z</time></trkpt>
<trkpt lat="46.54114416" lon="6.99158977"><ele></ele><time>2014-4-19T6:16:52Z</time></trkpt>
<trkpt lat="46.54117232" lon="6.99165448"><ele></ele><time>2014-4-19T6:16:55Z</time></trkpt>
<trkpt lat="46.54126704" lon="6.99176906"><ele></ele><time>2014-4-19T6:16:58Z</time></trkpt>
<trkpt lat="46.54131565" lon="6.99182639"><ele></ele><time>2014-4-19T6:17:1Z</time></trkpt>
<trkpt lat="46.54145588" lon="6.99203518"><ele></ele><time>2014-4-19T6:17:4Z</time></trkpt>
<trkpt lat="46.54149285" lon="6.99208983"><ele></ele><time>2014-4-19T6:17:7Z</time></trkpt>
<trkpt lat="46.54156376" lon="6.99209570"><ele></ele><time>2014-4-19T6:17:10Z</time></trkpt>
<trkpt lat="46.54161103" lon="6.99207583"><ele></ele><time>2014-4-19T6:17:13Z</time></trkpt>
<trkpt lat="46.54185327" lon="6.99222109"><ele></ele><time>2014-4-19T6:17:16Z</time></trkpt>
<trkpt lat="46.54191739" lon="6.99259115"><ele></ele><time>2014-4-19T6:17:19Z</time></trkpt>
<trkpt lat="46.54196248" lon="6.99276826"><ele></ele><time>2014-4-19T6:17:22Z</time></trkpt>
<trkpt lat="46.54198579" lon="6.99294143"><ele></ele><time>2014-4-19T6:17:25Z</time></trkpt>
<trkpt lat="46.54189794" lon="6.99317814"><ele></ele><time>2014-4-19T6:17:28Z</time></trkpt>
<trkpt lat="46.54190079" lon="6.99332499"><ele></ele><time>2014-4-19T6:17:31Z</time></trkpt>
<trkpt lat="46.54192627" lon="6.99338433"><ele></ele><time>2014-4-19T6:17:34Z</time></trkpt>
<trkpt lat="46.54200934" lon="6.99354485"><ele></ele><time>2014-4-19T6:17:37Z</time></trkpt>
<trkpt lat="46.54221813" lon="6.99392715"><ele></ele><time>2014-4-19T6:17:40Z</time></trkpt>
<trkpt lat="46.54224378" lon="6.99395154"><ele></ele><time>2014-4-19T6:17:43Z</time></trkpt>
<trkpt lat="46.54223305" lon="6.99386663"><ele></ele><time>2014-4-19T6:17:46Z</time></trkpt>
<trkpt lat="46.54227966" lon="6.99368089"><ele></ele><time>2014-4-19T6:17:49Z</time></trkpt>
<trkpt lat="46.54228879" lon="6.99363822"><ele></ele><time>2014-4-19T6:17:52Z</time></trkpt>
<trkpt lat="46.54248375" lon="6.99350914"><ele></ele><time>2014-4-19T6:17:55Z</time></trkpt>
<trkpt lat="46.54260923" lon="6.99339263"><ele></ele><time>2014-4-19T6:17:58Z</time></trkpt>
<trkpt lat="46.54284082" lon="6.99303749"><ele></ele><time>2014-4-19T6:18:1Z</time></trkpt>
<trkpt lat="46.54286857" lon="6.99291914"><ele></ele><time>2014-4-19T6:18:4Z</time></trkpt>
<trkpt lat="46.54303093" lon="6.99270733"><ele></ele><time>2014-4-19T6:18:7Z</time></trkpt>
<trkpt lat="46.54318306" lon="6.99229619"><ele></ele><time>2014-4-19T6:18:10Z</time></trkpt>
<trkpt lat="46.54318750" lon="6.99221288"><ele></ele><time>2014-4-19T6:18:13Z</time></trkpt>
<trkpt lat="46.54314039" lon="6.99207852"><ele></ele><time>2014-4-19T6:18:16Z</time></trkpt>
<trkpt lat="46.54312715" lon="6.99201523"><ele></ele><time>2014-4-19T6:18:19Z</time></trkpt>
<trkpt lat="46.54311198" lon="6.99188883"><ele></ele><time>2014-4-19T6:18:22Z</time></trkpt>
<trkpt lat="46.54319119" lon="6.99178423"><ele></ele><time>2014-4-19T6:18:25Z</time></trkpt>
<trkpt lat="46.54323687" lon="6.99169815"><ele></ele><time>2014-4-19T6:18:28Z</time></trkpt>
<trkpt lat="46.54331130" lon="6.99166822"><ele></ele><time>2014-4-19T6:18:31Z</time></trkpt>
<trkpt lat="46.54357919" lon="6.99152665"><ele></ele><time>2014-4-19T6:18:34Z</time></trkpt>
<trkpt lat="46.54384087" lon="6.99135147"><ele></ele><time>2014-4-19T6:18:37Z</time></trkpt>
<trkpt lat="46.54427463" lon="6.99142976"><ele></ele><time>2014-4-19T6:18:40Z</time></trkpt>
<trkpt lat="46.54460932" lon="6.99148449"><ele></ele><time>2014-4-19T6:18:43Z</time></trkpt>
<trkpt lat="46.54491652" lon="6.99155708"><ele></ele><time>2014-4-19T6:18:46Z</time></trkpt>
<trkpt lat="46.54504023" lon="6.99161785"><ele></ele><time>2014-4-19T6:18:49Z</time></trkpt>
<trkpt lat="46.54512372" lon="6.99167183"><ele></ele><time>2014-4-19T6:18:52Z</time></trkpt>
<trkpt lat="46.54523210" lon="6.99170779"><ele></ele><time>2014-4-19T6:18:55Z</time></trkpt>
<trkpt lat="46.54536302" lon="6.99160762"><ele></ele><time>2014-4-19T6:18:58Z</time></trkpt>
<trkpt lat="46.54568883" lon="6.99140185"><ele></ele><time>2014-4-19T6:19:1Z</time></trkpt>
<trkpt lat="46.54599493" lon="6.99123848"><ele></ele><time>2014-4-19T6:19:4Z</time></trkpt>
<trkpt lat="46.54607238" lon="6.99112759"><ele></ele><time>2014-4-19T6:19:7Z</time></trkpt>
<trkpt lat="46.54602259" lon="6.99077739"><ele></ele><time>2014-4-19T6:19:10Z</time></trkpt>
<trkpt lat="46.54605587" lon="6.99058947"><ele></ele><time>2014-4-19T6:19:13Z</time></trkpt>
<trkpt lat="46.54607574" lon="6.99050674"><ele></ele><time>2014-4-19T6:19:16Z</time></trkpt>
<trkpt lat="46.54627648" lon="6.99008237"><ele></ele><time>2014-4-19T6:19:19Z</time></trkpt>
<trkpt lat="46.54638042" lon="6.98991557"><ele></ele><time>2014-4-19T6:19:22Z</time></trkpt>
<trkpt lat="46.54688249" lon="6.98935272"><ele></ele><time>2014-4-19T6:19:25Z</time></trkpt>
<trkpt lat="46.54701853" lon="6.98920294"><ele></ele><time>2014-4-19T6:19:28Z</time></trkpt>
<trkpt lat="46.54717737" lon="6.98869038"><ele></ele><time>2014-4-19T6:19:31Z</time></trkpt>
<trkpt lat="46.54711308" lon="6.98840129"><ele></ele><time>2014-4-19T6:19:34Z</time></trkpt>
<trkpt lat="46.54707888" lon="6.98837304"><ele></ele><time>2014-4-19T6:19:37Z</time></trkpt>
<trkpt lat="46.54695407" lon="6.98826215"><ele></ele><time>2014-4-19T6:19:40Z</time></trkpt>
<trkpt lat="46.54691837" lon="6.98822837"><ele></ele><time>2014-4-19T6:19:43Z</time></trkpt>
<trkpt lat="46.54673095" lon="6.98808244"><ele></ele><time>2014-4-19T6:19:46Z</time></trkpt>
<trkpt lat="46.54663933" lon="6.98800164"><ele></ele><time>2014-4-19T6:19:49Z</time></trkpt>
<trkpt lat="46.54649902" lon="6.98787793"><ele></ele><time>2014-4-19T6:19:52Z</time></trkpt>
<trkpt lat="46.54644932" lon="6.98784524"><ele></ele><time>2014-4-19T6:19:55Z</time></trkpt>
<trkpt lat="46.54628025" lon="6.98774507"><ele></ele><time>2014-4-19T6:19:58Z</time></trkpt>
<trkpt lat="46.54622284" lon="6.98771104"><ele></ele><time>2014-4-19T6:20:1Z</time></trkpt>
<trkpt lat="46.54617146" lon="6.98767525"><ele></ele><time>2014-4-19T6:20:4Z</time></trkpt>
<trkpt lat="46.54589209" lon="6.98735439"><ele></ele><time>2014-4-19T6:20:7Z</time></trkpt>
<trkpt lat="46.54571909" lon="6.98715205"><ele></ele><time>2014-4-19T6:20:10Z</time></trkpt>
<trkpt lat="46.54562529" lon="6.98703378"><ele></ele><time>2014-4-19T6:20:13Z</time></trkpt>
<trkpt lat="46.54557802" lon="6.98697704"><ele></ele><time>2014-4-19T6:20:16Z</time></trkpt>
<trkpt lat="46.54533947" lon="6.98672784"><ele></ele><time>2014-4-19T6:20:19Z</time></trkpt>
<trkpt lat="46.54508885" lon="6.98649449"><ele></ele><time>2014-4-19T6:20:22Z</time></trkpt>
<trkpt lat="46.54498952" lon="6.98640665"><ele></ele><time>2014-4-19T6:20:25Z</time></trkpt>
<trkpt lat="46.54476816" lon="6.98621554"><ele></ele><time>2014-4-19T6:20:28Z</time></trkpt>
<trkpt lat="46.54470127" lon="6.98616358"><ele></ele><time>2014-4-19T6:20:31Z</time></trkpt>
<trkpt lat="46.54466556" lon="6.98614337"><ele></ele><time>2014-4-19T6:20:34Z</time></trkpt>
<trkpt lat="46.54460312" lon="6.98610147"><ele></ele><time>2014-4-19T6:20:37Z</time></trkpt>
<trkpt lat="46.54457613" lon="6.98607967"><ele></ele><time>2014-4-19T6:20:40Z</time></trkpt>
<trkpt lat="46.54444537" lon="6.98595889"><ele></ele><time>2014-4-19T6:20:43Z</time></trkpt>
<trkpt lat="46.54427170" lon="6.98582746"><ele></ele><time>2014-4-19T6:20:46Z</time></trkpt>
<trkpt lat="46.54423105" lon="6.98579779"><ele></ele><time>2014-4-19T6:20:49Z</time></trkpt>
<trkpt lat="46.54419140" lon="6.98577097"><ele></ele><time>2014-4-19T6:20:52Z</time></trkpt>
<trkpt lat="46.54396567" lon="6.98571246"><ele></ele><time>2014-4-19T6:20:55Z</time></trkpt>
<trkpt lat="46.54383467" lon="6.98565840"><ele></ele><time>2014-4-19T6:20:58Z</time></trkpt>
<trkpt lat="46.54380776" lon="6.98558849"><ele></ele><time>2014-4-19T6:21:1Z</time></trkpt>
<trkpt lat="46.54394757" lon="6.98560090"><ele></ele><time>2014-4-19T6:21:4Z</time></trkpt>
<trkpt lat="46.54397682" lon="6.98558774"><ele></ele><time>2014-4-19T6:21:7Z</time></trkpt>
<trkpt lat="46.54404044" lon="6.98555295"><ele></ele><time>2014-4-19T6:21:10Z</time></trkpt>
<trkpt lat="46.54417983" lon="6.98552395"><ele></ele><time>2014-4-19T6:21:13Z</time></trkpt>
<trkpt lat="46.54445434" lon="6.98553887"><ele></ele><time>2014-4-19T6:21:16Z</time></trkpt>
<trkpt lat="46.54459356" lon="6.98552596"><ele></ele><time>2014-4-19T6:21:19Z</time></trkpt>
<trkpt lat="46.54473723" lon="6.98551783"><ele></ele><time>2014-4-19T6:21:22Z</time></trkpt>
<trkpt lat="46.54488953" lon="6.98552286"><ele></ele><time>2014-4-19T6:21:25Z</time></trkpt>
<trkpt lat="46.54504283" lon="6.98553049"><ele></ele><time>2014-4-19T6:21:28Z</time></trkpt>
<trkpt lat="46.54509824" lon="6.98553057"><ele></ele><time>2014-4-19T6:21:31Z</time></trkpt>
<trkpt lat="46.54522313" lon="6.98555228"><ele></ele><time>2014-4-19T6:21:34Z</time></trkpt>
<trkpt lat="46.54537316" lon="6.98556033"><ele></ele><time>2014-4-19T6:21:37Z</time></trkpt>
<trkpt lat="46.54548984" lon="6.98553636"><ele></ele><time>2014-4-19T6:21:40Z</time></trkpt>
<trkpt lat="46.54563795" lon="6.98554315"><ele></ele><time>2014-4-19T6:21:43Z</time></trkpt>
<trkpt lat="46.54566309" lon="6.98552135"><ele></ele><time>2014-4-19T6:21:46Z</time></trkpt>
<trkpt lat="46.54543242" lon="6.98530535"><ele></ele><time>2014-4-19T6:21:49Z</time></trkpt>
<trkpt lat="46.54506806" lon="6.98504032"><ele></ele><time>2014-4-19T6:21:52Z</time></trkpt>
<trkpt lat="46.54499765" lon="6.98500486"><ele></ele><time>2014-4-19T6:21:55Z</time></trkpt>
<trkpt lat="46.54491895" lon="6.98494384"><ele></ele><time>2014-4-19T6:21:58Z</time></trkpt>
<trkpt lat="46.54483362" lon="6.98488098"><ele></ele><time>2014-4-19T6:22:1Z</time></trkpt>
<trkpt lat="46.54462005" lon="6.98473438"><ele></ele><time>2014-4-19T6:22:4Z</time></trkpt>
<trkpt lat="46.54452274" lon="6.98466020"><ele></ele><time>2014-4-19T6:22:7Z</time></trkpt>
<trkpt lat="46.54435996" lon="6.98446766"><ele></ele><time>2014-4-19T6:22:10Z</time></trkpt>
<trkpt lat="46.54419199" lon="6.98427505"><ele></ele><time>2014-4-19T6:22:13Z</time></trkpt>
<trkpt lat="46.54405469" lon="6.98412275"><ele></ele><time>2014-4-19T6:22:16Z</time></trkpt>
<trkpt lat="46.54400390" lon="6.98401026"><ele></ele><time>2014-4-19T6:22:19Z</time></trkpt>
<trkpt lat="46.54390583" lon="6.98383735"><ele></ele><time>2014-4-19T6:22:22Z</time></trkpt>
<trkpt lat="46.54382033" lon="6.98372335"><ele></ele><time>2014-4-19T6:22:25Z</time></trkpt>
<trkpt lat="46.54371589" lon="6.98361363"><ele></ele><time>2014-4-19T6:22:28Z</time></trkpt>
<trkpt lat="46.54346745" lon="6.98335648"><ele></ele><time>2014-4-19T6:22:31Z</time></trkpt>
<trkpt lat="46.54335036" lon="6.98326386"><ele></ele><time>2014-4-19T6:22:34Z</time></trkpt>
<trkpt lat="46.54330283" lon="6.98323678"><ele></ele><time>2014-4-19T6:22:37Z</time></trkpt>
<trkpt lat="46.54312262" lon="6.98314140"><ele></ele><time>2014-4-19T6:22:40Z</time></trkpt>
<trkpt lat="46.54305532" lon="6.98306973"><ele></ele><time>2014-4-19T6:22:43Z</time></trkpt>
<trkpt lat="46.54298139" lon="6.98278684"><ele></ele><time>2014-4-19T6:22:46Z</time></trkpt>
<trkpt lat="46.54284837" lon="6.98240379"><ele></ele><time>2014-4-19T6:22:49Z</time></trkpt>
<trkpt lat="46.54270018" lon="6.98217798"><ele></ele><time>2014-4-19T6:22:52Z</time></trkpt>
<trkpt lat="46.54265776" lon="6.98211436"><ele></ele><time>2014-4-19T6:22:55Z</time></trkpt>
<trkpt lat="46.54258065" lon="6.98190465"><ele></ele><time>2014-4-19T6:22:58Z</time></trkpt>
<trkpt lat="46.54244369" lon="6.98159586"><ele></ele><time>2014-4-19T6:23:1Z</time></trkpt>
<trkpt lat="46.54230589" lon="6.98133443"><ele></ele><time>2014-4-19T6:23:4Z</time></trkpt>
<trkpt lat="46.54226675" lon="6.98125899"><ele></ele><time>2014-4-19T6:23:7Z</time></trkpt>
<trkpt lat="46.54215912" lon="6.98090133"><ele></ele><time>2014-4-19T6:23:10Z</time></trkpt>
<trkpt lat="46.54213440" lon="6.98081399"><ele></ele><time>2014-4-19T6:23:13Z</time></trkpt>
<trkpt lat="46.54212828" lon="6.98039180"><ele></ele><time>2014-4-19T6:23:16Z</time></trkpt>
<trkpt lat="46.54218125" lon="6.98016875"><ele></ele><time>2014-4-19T6:23:19Z</time></trkpt>
<trkpt lat="46.54249633" lon="6.98019616"><ele></ele><time>2014-4-19T6:23:22Z</time></trkpt>
<trkpt lat="46.54276044" lon="6.98032499"><ele></ele><time>2014-4-19T6:23:25Z</time></trkpt>
<trkpt lat="46.54274493" lon="6.98033312"><ele></ele><time>2014-4-19T6:23:28Z</time></trkpt>
</trkseg></trk></gpx>